<?xml version="1.0" encoding="UTF-8" standalone="no" ?>
<gpx xmlns="http://www.topografix.com/GPX/1/1" xmlns:xsi="http://www.w3.org/2001/XMLSchema-instance" xsi:schemaLocation="http://www.topografix.com/GPX/1/1 http://www.topografix.com/GPX/1/1/gpx.xsd" version="1.1" creator="VisuGPX - https://www.visugpx.com">
  <metadata>
    <name>grange de la brasque </name>
    <desc><![CDATA[Les granges de la brasque en boucle depuis l?ancienne hôtel auda ]]></desc>
  </metadata>
  <trk>
    <name><![CDATA[grange de la brasque ]]></name>
    <trkseg>
      <trkpt lat="43.96286" lon="7.26859">
        <ele>691.57666</ele>
        <time>2021-02-03T08:26:30Z</time>
      </trkpt>
      <trkpt lat="43.963" lon="7.26867">
        <ele>699.087158</ele>
        <time>2021-02-03T08:26:46Z</time>
      </trkpt>
      <trkpt lat="43.96293" lon="7.26851">
        <ele>690.853271</ele>
        <time>2021-02-03T08:27:02Z</time>
      </trkpt>
      <trkpt lat="43.96299" lon="7.26834">
        <ele>686.531677</ele>
        <time>2021-02-03T08:29:14Z</time>
      </trkpt>
      <trkpt lat="43.96313" lon="7.26821">
        <ele>684.693115</ele>
        <time>2021-02-03T08:29:30Z</time>
      </trkpt>
      <trkpt lat="43.96327" lon="7.26819">
        <ele>687.036316</ele>
        <time>2021-02-03T08:29:46Z</time>
      </trkpt>
      <trkpt lat="43.96341" lon="7.26815">
        <ele>687.505493</ele>
        <time>2021-02-03T08:30:02Z</time>
      </trkpt>
      <trkpt lat="43.9636" lon="7.26808">
        <ele>688.212952</ele>
        <time>2021-02-03T08:30:18Z</time>
      </trkpt>
      <trkpt lat="43.96373" lon="7.26803">
        <ele>688.810669</ele>
        <time>2021-02-03T08:30:33Z</time>
      </trkpt>
      <trkpt lat="43.96392" lon="7.26794">
        <ele>689.205566</ele>
        <time>2021-02-03T08:30:48Z</time>
      </trkpt>
      <trkpt lat="43.9641" lon="7.26791">
        <ele>691.986145</ele>
        <time>2021-02-03T08:31:04Z</time>
      </trkpt>
      <trkpt lat="43.96424" lon="7.268">
        <ele>697.702148</ele>
        <time>2021-02-03T08:31:19Z</time>
      </trkpt>
      <trkpt lat="43.96439" lon="7.26807">
        <ele>701.177856</ele>
        <time>2021-02-03T08:31:35Z</time>
      </trkpt>
      <trkpt lat="43.96455" lon="7.26817">
        <ele>705.939819</ele>
        <time>2021-02-03T08:31:50Z</time>
      </trkpt>
      <trkpt lat="43.96471" lon="7.26829">
        <ele>710.444641</ele>
        <time>2021-02-03T08:32:06Z</time>
      </trkpt>
      <trkpt lat="43.96486" lon="7.2684">
        <ele>715.136658</ele>
        <time>2021-02-03T08:32:22Z</time>
      </trkpt>
      <trkpt lat="43.96504" lon="7.26849">
        <ele>718.867188</ele>
        <time>2021-02-03T08:32:38Z</time>
      </trkpt>
      <trkpt lat="43.96522" lon="7.26848">
        <ele>720.357483</ele>
        <time>2021-02-03T08:32:53Z</time>
      </trkpt>
      <trkpt lat="43.96537" lon="7.26842">
        <ele>719.561401</ele>
        <time>2021-02-03T08:33:08Z</time>
      </trkpt>
      <trkpt lat="43.96555" lon="7.26843">
        <ele>721.909302</ele>
        <time>2021-02-03T08:33:24Z</time>
      </trkpt>
      <trkpt lat="43.96569" lon="7.26847">
        <ele>724.682068</ele>
        <time>2021-02-03T08:33:40Z</time>
      </trkpt>
      <trkpt lat="43.96589" lon="7.26849">
        <ele>728.810059</ele>
        <time>2021-02-03T08:33:55Z</time>
      </trkpt>
      <trkpt lat="43.96605" lon="7.26844">
        <ele>733.121948</ele>
        <time>2021-02-03T08:34:10Z</time>
      </trkpt>
      <trkpt lat="43.96625" lon="7.26839">
        <ele>737.576172</ele>
        <time>2021-02-03T08:34:26Z</time>
      </trkpt>
      <trkpt lat="43.96642" lon="7.26833">
        <ele>741.049011</ele>
        <time>2021-02-03T08:34:42Z</time>
      </trkpt>
      <trkpt lat="43.96653" lon="7.26822">
        <ele>741.252563</ele>
        <time>2021-02-03T08:35:00Z</time>
      </trkpt>
      <trkpt lat="43.96667" lon="7.26808">
        <ele>741.221924</ele>
        <time>2021-02-03T08:35:16Z</time>
      </trkpt>
      <trkpt lat="43.96678" lon="7.26795">
        <ele>742.883301</ele>
        <time>2021-02-03T08:35:32Z</time>
      </trkpt>
      <trkpt lat="43.96688" lon="7.26779">
        <ele>741.985352</ele>
        <time>2021-02-03T08:35:47Z</time>
      </trkpt>
      <trkpt lat="43.96701" lon="7.26761">
        <ele>741.455444</ele>
        <time>2021-02-03T08:36:03Z</time>
      </trkpt>
      <trkpt lat="43.96715" lon="7.26754">
        <ele>745.182434</ele>
        <time>2021-02-03T08:36:19Z</time>
      </trkpt>
      <trkpt lat="43.96729" lon="7.2675">
        <ele>750.228638</ele>
        <time>2021-02-03T08:36:36Z</time>
      </trkpt>
      <trkpt lat="43.96742" lon="7.26741">
        <ele>751.43457</ele>
        <time>2021-02-03T08:36:51Z</time>
      </trkpt>
      <trkpt lat="43.96753" lon="7.26724">
        <ele>747.637329</ele>
        <time>2021-02-03T08:37:07Z</time>
      </trkpt>
      <trkpt lat="43.96763" lon="7.26706">
        <ele>741.442322</ele>
        <time>2021-02-03T08:37:23Z</time>
      </trkpt>
      <trkpt lat="43.96777" lon="7.26702">
        <ele>744.416809</ele>
        <time>2021-02-03T08:37:40Z</time>
      </trkpt>
      <trkpt lat="43.96791" lon="7.26699">
        <ele>747.999146</ele>
        <time>2021-02-03T08:37:55Z</time>
      </trkpt>
      <trkpt lat="43.96805" lon="7.26701">
        <ele>753.723083</ele>
        <time>2021-02-03T08:38:10Z</time>
      </trkpt>
      <trkpt lat="43.96825" lon="7.26697">
        <ele>759.089539</ele>
        <time>2021-02-03T08:38:26Z</time>
      </trkpt>
      <trkpt lat="43.9684" lon="7.267">
        <ele>761.073486</ele>
        <time>2021-02-03T08:38:44Z</time>
      </trkpt>
      <trkpt lat="43.96854" lon="7.26701">
        <ele>756.396606</ele>
        <time>2021-02-03T08:38:59Z</time>
      </trkpt>
      <trkpt lat="43.96871" lon="7.26687">
        <ele>746.055908</ele>
        <time>2021-02-03T08:39:15Z</time>
      </trkpt>
      <trkpt lat="43.96876" lon="7.26705">
        <ele>750.320557</ele>
        <time>2021-02-03T08:39:31Z</time>
      </trkpt>
      <trkpt lat="43.9688" lon="7.26728">
        <ele>756.530212</ele>
        <time>2021-02-03T08:39:47Z</time>
      </trkpt>
      <trkpt lat="43.96889" lon="7.26748">
        <ele>759.868286</ele>
        <time>2021-02-03T08:40:02Z</time>
      </trkpt>
      <trkpt lat="43.96902" lon="7.26765">
        <ele>762.349121</ele>
        <time>2021-02-03T08:40:17Z</time>
      </trkpt>
      <trkpt lat="43.96914" lon="7.26786">
        <ele>766.073914</ele>
        <time>2021-02-03T08:40:33Z</time>
      </trkpt>
      <trkpt lat="43.9692" lon="7.26806">
        <ele>773.210938</ele>
        <time>2021-02-03T08:40:49Z</time>
      </trkpt>
      <trkpt lat="43.96934" lon="7.26819">
        <ele>777.791809</ele>
        <time>2021-02-03T08:41:05Z</time>
      </trkpt>
      <trkpt lat="43.96947" lon="7.26812">
        <ele>774.501587</ele>
        <time>2021-02-03T08:41:23Z</time>
      </trkpt>
      <trkpt lat="43.96968" lon="7.26811">
        <ele>773.427124</ele>
        <time>2021-02-03T08:41:38Z</time>
      </trkpt>
      <trkpt lat="43.96984" lon="7.26813">
        <ele>773.698303</ele>
        <time>2021-02-03T08:41:54Z</time>
      </trkpt>
      <trkpt lat="43.97003" lon="7.268">
        <ele>767.005005</ele>
        <time>2021-02-03T08:42:10Z</time>
      </trkpt>
      <trkpt lat="43.97015" lon="7.26808">
        <ele>769.433472</ele>
        <time>2021-02-03T08:42:28Z</time>
      </trkpt>
      <trkpt lat="43.97031" lon="7.26812">
        <ele>769.959351</ele>
        <time>2021-02-03T08:42:43Z</time>
      </trkpt>
      <trkpt lat="43.97048" lon="7.26815">
        <ele>769.842102</ele>
        <time>2021-02-03T08:42:59Z</time>
      </trkpt>
      <trkpt lat="43.97062" lon="7.26817">
        <ele>769.640503</ele>
        <time>2021-02-03T08:43:14Z</time>
      </trkpt>
      <trkpt lat="43.97077" lon="7.26831">
        <ele>773.846191</ele>
        <time>2021-02-03T08:43:30Z</time>
      </trkpt>
      <trkpt lat="43.97093" lon="7.26838">
        <ele>774.217224</ele>
        <time>2021-02-03T08:43:46Z</time>
      </trkpt>
      <trkpt lat="43.97112" lon="7.26843">
        <ele>772.925354</ele>
        <time>2021-02-03T08:44:02Z</time>
      </trkpt>
      <trkpt lat="43.97128" lon="7.2685">
        <ele>772.661743</ele>
        <time>2021-02-03T08:44:17Z</time>
      </trkpt>
      <trkpt lat="43.97145" lon="7.26852">
        <ele>770.08252</ele>
        <time>2021-02-03T08:44:33Z</time>
      </trkpt>
      <trkpt lat="43.97162" lon="7.26857">
        <ele>769.013245</ele>
        <time>2021-02-03T08:44:48Z</time>
      </trkpt>
      <trkpt lat="43.97169" lon="7.26874">
        <ele>773.59021</ele>
        <time>2021-02-03T08:45:06Z</time>
      </trkpt>
      <trkpt lat="43.97179" lon="7.26888">
        <ele>778.421204</ele>
        <time>2021-02-03T08:45:22Z</time>
      </trkpt>
      <trkpt lat="43.97196" lon="7.26889">
        <ele>778.898071</ele>
        <time>2021-02-03T08:45:37Z</time>
      </trkpt>
      <trkpt lat="43.97211" lon="7.26902">
        <ele>782.18927</ele>
        <time>2021-02-03T08:45:52Z</time>
      </trkpt>
      <trkpt lat="43.9722" lon="7.26919">
        <ele>786.133667</ele>
        <time>2021-02-03T08:46:08Z</time>
      </trkpt>
      <trkpt lat="43.97232" lon="7.26937">
        <ele>790.109375</ele>
        <time>2021-02-03T08:46:24Z</time>
      </trkpt>
      <trkpt lat="43.9724" lon="7.26956">
        <ele>793.979614</ele>
        <time>2021-02-03T08:46:39Z</time>
      </trkpt>
      <trkpt lat="43.97245" lon="7.26976">
        <ele>797.661682</ele>
        <time>2021-02-03T08:46:54Z</time>
      </trkpt>
      <trkpt lat="43.97259" lon="7.26971">
        <ele>797.93689</ele>
        <time>2021-02-03T08:47:14Z</time>
      </trkpt>
      <trkpt lat="43.97266" lon="7.26953">
        <ele>795.167236</ele>
        <time>2021-02-03T08:48:36Z</time>
      </trkpt>
      <trkpt lat="43.97268" lon="7.26934">
        <ele>791.118225</ele>
        <time>2021-02-03T08:48:53Z</time>
      </trkpt>
      <trkpt lat="43.97274" lon="7.26912">
        <ele>787.192993</ele>
        <time>2021-02-03T08:49:09Z</time>
      </trkpt>
      <trkpt lat="43.97282" lon="7.26896">
        <ele>787.442749</ele>
        <time>2021-02-03T08:49:28Z</time>
      </trkpt>
      <trkpt lat="43.9729" lon="7.2688">
        <ele>788.3302</ele>
        <time>2021-02-03T08:49:56Z</time>
      </trkpt>
      <trkpt lat="43.97303" lon="7.26885">
        <ele>791.832397</ele>
        <time>2021-02-03T08:51:03Z</time>
      </trkpt>
      <trkpt lat="43.97319" lon="7.26898">
        <ele>795.430481</ele>
        <time>2021-02-03T08:51:18Z</time>
      </trkpt>
      <trkpt lat="43.97333" lon="7.2691">
        <ele>797.418945</ele>
        <time>2021-02-03T08:51:34Z</time>
      </trkpt>
      <trkpt lat="43.97347" lon="7.26919">
        <ele>802.142334</ele>
        <time>2021-02-03T08:51:54Z</time>
      </trkpt>
      <trkpt lat="43.97365" lon="7.26921">
        <ele>808.221802</ele>
        <time>2021-02-03T08:52:09Z</time>
      </trkpt>
      <trkpt lat="43.97384" lon="7.26923">
        <ele>814.415771</ele>
        <time>2021-02-03T08:52:25Z</time>
      </trkpt>
      <trkpt lat="43.97401" lon="7.26923">
        <ele>819.53717</ele>
        <time>2021-02-03T08:52:40Z</time>
      </trkpt>
      <trkpt lat="43.97413" lon="7.26906">
        <ele>826.240112</ele>
        <time>2021-02-03T08:52:55Z</time>
      </trkpt>
      <trkpt lat="43.97401" lon="7.26892">
        <ele>825.973999</ele>
        <time>2021-02-03T08:53:11Z</time>
      </trkpt>
      <trkpt lat="43.97391" lon="7.26875">
        <ele>826.48761</ele>
        <time>2021-02-03T08:53:27Z</time>
      </trkpt>
      <trkpt lat="43.97385" lon="7.26857">
        <ele>827.596741</ele>
        <time>2021-02-03T08:53:43Z</time>
      </trkpt>
      <trkpt lat="43.97387" lon="7.26837">
        <ele>833.685669</ele>
        <time>2021-02-03T08:53:58Z</time>
      </trkpt>
      <trkpt lat="43.97382" lon="7.26815">
        <ele>838.208008</ele>
        <time>2021-02-03T08:54:14Z</time>
      </trkpt>
      <trkpt lat="43.97377" lon="7.26796">
        <ele>841.935303</ele>
        <time>2021-02-03T08:54:29Z</time>
      </trkpt>
      <trkpt lat="43.97381" lon="7.26774">
        <ele>851.992676</ele>
        <time>2021-02-03T08:54:45Z</time>
      </trkpt>
      <trkpt lat="43.97373" lon="7.26753">
        <ele>855.849426</ele>
        <time>2021-02-03T08:55:01Z</time>
      </trkpt>
      <trkpt lat="43.97356" lon="7.26747">
        <ele>849.929565</ele>
        <time>2021-02-03T08:55:16Z</time>
      </trkpt>
      <trkpt lat="43.97343" lon="7.26739">
        <ele>848.437683</ele>
        <time>2021-02-03T08:55:32Z</time>
      </trkpt>
      <trkpt lat="43.97337" lon="7.2672">
        <ele>855.584412</ele>
        <time>2021-02-03T08:55:50Z</time>
      </trkpt>
      <trkpt lat="43.97325" lon="7.26708">
        <ele>854.217896</ele>
        <time>2021-02-03T08:56:06Z</time>
      </trkpt>
      <trkpt lat="43.97312" lon="7.26696">
        <ele>851.752197</ele>
        <time>2021-02-03T08:56:22Z</time>
      </trkpt>
      <trkpt lat="43.97308" lon="7.26677">
        <ele>858.584106</ele>
        <time>2021-02-03T08:56:39Z</time>
      </trkpt>
      <trkpt lat="43.97307" lon="7.26657">
        <ele>865.401367</ele>
        <time>2021-02-03T08:56:55Z</time>
      </trkpt>
      <trkpt lat="43.97303" lon="7.26638">
        <ele>866.473022</ele>
        <time>2021-02-03T08:57:11Z</time>
      </trkpt>
      <trkpt lat="43.97288" lon="7.26626">
        <ele>858.385498</ele>
        <time>2021-02-03T08:57:26Z</time>
      </trkpt>
      <trkpt lat="43.97276" lon="7.26615">
        <ele>852.181458</ele>
        <time>2021-02-03T08:57:42Z</time>
      </trkpt>
      <trkpt lat="43.9727" lon="7.26598">
        <ele>851.877502</ele>
        <time>2021-02-03T08:58:27Z</time>
      </trkpt>
      <trkpt lat="43.97277" lon="7.26581">
        <ele>859.553345</ele>
        <time>2021-02-03T08:59:05Z</time>
      </trkpt>
      <trkpt lat="43.97277" lon="7.26562">
        <ele>861.300781</ele>
        <time>2021-02-03T08:59:42Z</time>
      </trkpt>
      <trkpt lat="43.97277" lon="7.26544">
        <ele>862.8573</ele>
        <time>2021-02-03T09:01:20Z</time>
      </trkpt>
      <trkpt lat="43.97285" lon="7.26528">
        <ele>868.287781</ele>
        <time>2021-02-03T09:01:49Z</time>
      </trkpt>
      <trkpt lat="43.97288" lon="7.26509">
        <ele>870.899231</ele>
        <time>2021-02-03T09:02:04Z</time>
      </trkpt>
      <trkpt lat="43.97283" lon="7.26489">
        <ele>868.895386</ele>
        <time>2021-02-03T09:02:22Z</time>
      </trkpt>
      <trkpt lat="43.97276" lon="7.26472">
        <ele>866.027893</ele>
        <time>2021-02-03T09:02:48Z</time>
      </trkpt>
      <trkpt lat="43.9727" lon="7.26453">
        <ele>863.700134</ele>
        <time>2021-02-03T09:03:04Z</time>
      </trkpt>
      <trkpt lat="43.97267" lon="7.26433">
        <ele>862.804016</ele>
        <time>2021-02-03T09:03:20Z</time>
      </trkpt>
      <trkpt lat="43.9728" lon="7.26442">
        <ele>866.903687</ele>
        <time>2021-02-03T09:06:13Z</time>
      </trkpt>
      <trkpt lat="43.97294" lon="7.26441">
        <ele>871.770874</ele>
        <time>2021-02-03T09:06:29Z</time>
      </trkpt>
      <trkpt lat="43.97307" lon="7.26425">
        <ele>875.008789</ele>
        <time>2021-02-03T09:06:45Z</time>
      </trkpt>
      <trkpt lat="43.97318" lon="7.26402">
        <ele>873.087891</ele>
        <time>2021-02-03T09:07:01Z</time>
      </trkpt>
      <trkpt lat="43.97324" lon="7.26384">
        <ele>868.567383</ele>
        <time>2021-02-03T09:08:15Z</time>
      </trkpt>
      <trkpt lat="43.97328" lon="7.26357">
        <ele>860.7547</ele>
        <time>2021-02-03T09:08:31Z</time>
      </trkpt>
      <trkpt lat="43.97335" lon="7.26332">
        <ele>852.506775</ele>
        <time>2021-02-03T09:08:47Z</time>
      </trkpt>
      <trkpt lat="43.97347" lon="7.26321">
        <ele>841.008301</ele>
        <time>2021-02-03T09:09:03Z</time>
      </trkpt>
      <trkpt lat="43.97361" lon="7.26325">
        <ele>837.875122</ele>
        <time>2021-02-03T09:09:40Z</time>
      </trkpt>
      <trkpt lat="43.97373" lon="7.26337">
        <ele>839.748779</ele>
        <time>2021-02-03T09:10:24Z</time>
      </trkpt>
      <trkpt lat="43.97383" lon="7.26353">
        <ele>845.427734</ele>
        <time>2021-02-03T09:10:40Z</time>
      </trkpt>
      <trkpt lat="43.97397" lon="7.26368">
        <ele>852.620178</ele>
        <time>2021-02-03T09:10:55Z</time>
      </trkpt>
      <trkpt lat="43.97411" lon="7.26376">
        <ele>856.136475</ele>
        <time>2021-02-03T09:11:10Z</time>
      </trkpt>
      <trkpt lat="43.97426" lon="7.26375">
        <ele>851.921204</ele>
        <time>2021-02-03T09:11:40Z</time>
      </trkpt>
      <trkpt lat="43.97442" lon="7.26372">
        <ele>845.401123</ele>
        <time>2021-02-03T09:11:55Z</time>
      </trkpt>
      <trkpt lat="43.97454" lon="7.26382">
        <ele>849.29834</ele>
        <time>2021-02-03T09:12:11Z</time>
      </trkpt>
      <trkpt lat="43.97473" lon="7.26379">
        <ele>841.993164</ele>
        <time>2021-02-03T09:12:27Z</time>
      </trkpt>
      <trkpt lat="43.97488" lon="7.26382">
        <ele>840.108948</ele>
        <time>2021-02-03T09:12:46Z</time>
      </trkpt>
      <trkpt lat="43.975" lon="7.26397">
        <ele>847.166626</ele>
        <time>2021-02-03T09:13:01Z</time>
      </trkpt>
      <trkpt lat="43.97506" lon="7.26416">
        <ele>856.846008</ele>
        <time>2021-02-03T09:13:19Z</time>
      </trkpt>
      <trkpt lat="43.97518" lon="7.26435">
        <ele>859.845154</ele>
        <time>2021-02-03T09:13:35Z</time>
      </trkpt>
      <trkpt lat="43.97531" lon="7.26453">
        <ele>862.560059</ele>
        <time>2021-02-03T09:13:50Z</time>
      </trkpt>
      <trkpt lat="43.97545" lon="7.26465">
        <ele>861.519714</ele>
        <time>2021-02-03T09:14:06Z</time>
      </trkpt>
      <trkpt lat="43.97559" lon="7.26478">
        <ele>861.645264</ele>
        <time>2021-02-03T09:14:21Z</time>
      </trkpt>
      <trkpt lat="43.97577" lon="7.26491">
        <ele>860.630066</ele>
        <time>2021-02-03T09:14:37Z</time>
      </trkpt>
      <trkpt lat="43.97591" lon="7.26487">
        <ele>852.965149</ele>
        <time>2021-02-03T09:14:52Z</time>
      </trkpt>
      <trkpt lat="43.97611" lon="7.26483">
        <ele>846.873901</ele>
        <time>2021-02-03T09:15:08Z</time>
      </trkpt>
      <trkpt lat="43.97628" lon="7.26498">
        <ele>849.432129</ele>
        <time>2021-02-03T09:15:23Z</time>
      </trkpt>
      <trkpt lat="43.97634" lon="7.26518">
        <ele>856.039917</ele>
        <time>2021-02-03T09:15:39Z</time>
      </trkpt>
      <trkpt lat="43.97643" lon="7.26542">
        <ele>862.599731</ele>
        <time>2021-02-03T09:15:54Z</time>
      </trkpt>
      <trkpt lat="43.97644" lon="7.26569">
        <ele>872.770996</ele>
        <time>2021-02-03T09:16:09Z</time>
      </trkpt>
      <trkpt lat="43.97654" lon="7.26592">
        <ele>875.855591</ele>
        <time>2021-02-03T09:16:25Z</time>
      </trkpt>
      <trkpt lat="43.97656" lon="7.26612">
        <ele>880.789734</ele>
        <time>2021-02-03T09:16:42Z</time>
      </trkpt>
      <trkpt lat="43.97663" lon="7.26634">
        <ele>883.61615</ele>
        <time>2021-02-03T09:16:57Z</time>
      </trkpt>
      <trkpt lat="43.97675" lon="7.26644">
        <ele>882.480042</ele>
        <time>2021-02-03T09:17:13Z</time>
      </trkpt>
      <trkpt lat="43.97687" lon="7.26629">
        <ele>875.486206</ele>
        <time>2021-02-03T09:17:29Z</time>
      </trkpt>
      <trkpt lat="43.977" lon="7.26614">
        <ele>867.856812</ele>
        <time>2021-02-03T09:17:44Z</time>
      </trkpt>
      <trkpt lat="43.97712" lon="7.26601">
        <ele>860.791382</ele>
        <time>2021-02-03T09:17:59Z</time>
      </trkpt>
      <trkpt lat="43.97724" lon="7.26618">
        <ele>863.719055</ele>
        <time>2021-02-03T09:18:15Z</time>
      </trkpt>
      <trkpt lat="43.97736" lon="7.26634">
        <ele>866.623047</ele>
        <time>2021-02-03T09:18:31Z</time>
      </trkpt>
      <trkpt lat="43.97758" lon="7.26644">
        <ele>868.175171</ele>
        <time>2021-02-03T09:18:47Z</time>
      </trkpt>
      <trkpt lat="43.9777" lon="7.2666">
        <ele>872.447083</ele>
        <time>2021-02-03T09:19:02Z</time>
      </trkpt>
      <trkpt lat="43.97785" lon="7.26667">
        <ele>873.082764</ele>
        <time>2021-02-03T09:19:18Z</time>
      </trkpt>
      <trkpt lat="43.97794" lon="7.26688">
        <ele>882.709839</ele>
        <time>2021-02-03T09:19:34Z</time>
      </trkpt>
      <trkpt lat="43.97808" lon="7.26688">
        <ele>881.800903</ele>
        <time>2021-02-03T09:19:55Z</time>
      </trkpt>
      <trkpt lat="43.9782" lon="7.26673">
        <ele>873.632935</ele>
        <time>2021-02-03T09:20:10Z</time>
      </trkpt>
      <trkpt lat="43.97835" lon="7.26672">
        <ele>873.35791</ele>
        <time>2021-02-03T09:20:34Z</time>
      </trkpt>
      <trkpt lat="43.97852" lon="7.26674">
        <ele>883.831055</ele>
        <time>2021-02-03T09:20:49Z</time>
      </trkpt>
      <trkpt lat="43.97865" lon="7.26677">
        <ele>892.577271</ele>
        <time>2021-02-03T09:21:05Z</time>
      </trkpt>
      <trkpt lat="43.97879" lon="7.26673">
        <ele>899.33374</ele>
        <time>2021-02-03T09:21:24Z</time>
      </trkpt>
      <trkpt lat="43.97893" lon="7.26673">
        <ele>907.62854</ele>
        <time>2021-02-03T09:21:39Z</time>
      </trkpt>
      <trkpt lat="43.97892" lon="7.26653">
        <ele>912.248535</ele>
        <time>2021-02-03T09:23:57Z</time>
      </trkpt>
      <trkpt lat="43.97885" lon="7.26636">
        <ele>914.063782</ele>
        <time>2021-02-03T09:24:12Z</time>
      </trkpt>
      <trkpt lat="43.97872" lon="7.26621">
        <ele>910.390259</ele>
        <time>2021-02-03T09:24:27Z</time>
      </trkpt>
      <trkpt lat="43.97862" lon="7.26608">
        <ele>908.029358</ele>
        <time>2021-02-03T09:24:57Z</time>
      </trkpt>
      <trkpt lat="43.97853" lon="7.26588">
        <ele>907.795654</ele>
        <time>2021-02-03T09:25:13Z</time>
      </trkpt>
      <trkpt lat="43.97842" lon="7.26568">
        <ele>905.535461</ele>
        <time>2021-02-03T09:25:29Z</time>
      </trkpt>
      <trkpt lat="43.97833" lon="7.26552">
        <ele>903.395691</ele>
        <time>2021-02-03T09:25:45Z</time>
      </trkpt>
      <trkpt lat="43.97825" lon="7.26533">
        <ele>903.538208</ele>
        <time>2021-02-03T09:26:00Z</time>
      </trkpt>
      <trkpt lat="43.97821" lon="7.26515">
        <ele>906.09967</ele>
        <time>2021-02-03T09:26:15Z</time>
      </trkpt>
      <trkpt lat="43.9782" lon="7.26493">
        <ele>909.629761</ele>
        <time>2021-02-03T09:26:31Z</time>
      </trkpt>
      <trkpt lat="43.97818" lon="7.26468">
        <ele>911.891541</ele>
        <time>2021-02-03T09:26:47Z</time>
      </trkpt>
      <trkpt lat="43.97815" lon="7.26447">
        <ele>913.282288</ele>
        <time>2021-02-03T09:27:02Z</time>
      </trkpt>
      <trkpt lat="43.9781" lon="7.26429">
        <ele>911.991699</ele>
        <time>2021-02-03T09:27:17Z</time>
      </trkpt>
      <trkpt lat="43.97806" lon="7.26408">
        <ele>909.727905</ele>
        <time>2021-02-03T09:27:33Z</time>
      </trkpt>
      <trkpt lat="43.97803" lon="7.26383">
        <ele>902.487183</ele>
        <time>2021-02-03T09:27:49Z</time>
      </trkpt>
      <trkpt lat="43.97796" lon="7.2636">
        <ele>894.233521</ele>
        <time>2021-02-03T09:28:05Z</time>
      </trkpt>
      <trkpt lat="43.97789" lon="7.26336">
        <ele>885.971069</ele>
        <time>2021-02-03T09:28:21Z</time>
      </trkpt>
      <trkpt lat="43.97794" lon="7.26319">
        <ele>881.55072</ele>
        <time>2021-02-03T09:28:42Z</time>
      </trkpt>
      <trkpt lat="43.9781" lon="7.26312">
        <ele>886.894958</ele>
        <time>2021-02-03T09:28:57Z</time>
      </trkpt>
      <trkpt lat="43.97822" lon="7.26298">
        <ele>887.276123</ele>
        <time>2021-02-03T09:29:13Z</time>
      </trkpt>
      <trkpt lat="43.97836" lon="7.26295">
        <ele>893.86731</ele>
        <time>2021-02-03T09:29:36Z</time>
      </trkpt>
      <trkpt lat="43.9785" lon="7.26298">
        <ele>902.582397</ele>
        <time>2021-02-03T09:29:54Z</time>
      </trkpt>
      <trkpt lat="43.97866" lon="7.26299">
        <ele>911.657959</ele>
        <time>2021-02-03T09:30:10Z</time>
      </trkpt>
      <trkpt lat="43.97879" lon="7.26287">
        <ele>913.968262</ele>
        <time>2021-02-03T09:30:25Z</time>
      </trkpt>
      <trkpt lat="43.97889" lon="7.26271">
        <ele>912.417847</ele>
        <time>2021-02-03T09:30:40Z</time>
      </trkpt>
      <trkpt lat="43.97893" lon="7.26253">
        <ele>907.14563</ele>
        <time>2021-02-03T09:31:04Z</time>
      </trkpt>
      <trkpt lat="43.97899" lon="7.26231">
        <ele>900.770325</ele>
        <time>2021-02-03T09:31:20Z</time>
      </trkpt>
      <trkpt lat="43.97905" lon="7.26212">
        <ele>895.501648</ele>
        <time>2021-02-03T09:31:35Z</time>
      </trkpt>
      <trkpt lat="43.97919" lon="7.26206">
        <ele>898.093201</ele>
        <time>2021-02-03T09:31:51Z</time>
      </trkpt>
      <trkpt lat="43.97935" lon="7.26204">
        <ele>897.227295</ele>
        <time>2021-02-03T09:32:07Z</time>
      </trkpt>
      <trkpt lat="43.97949" lon="7.26198">
        <ele>894.386597</ele>
        <time>2021-02-03T09:32:22Z</time>
      </trkpt>
      <trkpt lat="43.97963" lon="7.26194">
        <ele>892.388184</ele>
        <time>2021-02-03T09:32:41Z</time>
      </trkpt>
      <trkpt lat="43.97979" lon="7.26189">
        <ele>889.54834</ele>
        <time>2021-02-03T09:32:57Z</time>
      </trkpt>
      <trkpt lat="43.97996" lon="7.26184">
        <ele>885.690186</ele>
        <time>2021-02-03T09:33:13Z</time>
      </trkpt>
      <trkpt lat="43.98009" lon="7.26179">
        <ele>879.074158</ele>
        <time>2021-02-03T09:33:29Z</time>
      </trkpt>
      <trkpt lat="43.9802" lon="7.2619">
        <ele>882.2229</ele>
        <time>2021-02-03T09:33:49Z</time>
      </trkpt>
      <trkpt lat="43.98027" lon="7.26209">
        <ele>892.246338</ele>
        <time>2021-02-03T09:34:05Z</time>
      </trkpt>
      <trkpt lat="43.98035" lon="7.26231">
        <ele>902.824219</ele>
        <time>2021-02-03T09:34:21Z</time>
      </trkpt>
      <trkpt lat="43.98042" lon="7.2625">
        <ele>912.273682</ele>
        <time>2021-02-03T09:34:36Z</time>
      </trkpt>
      <trkpt lat="43.98054" lon="7.2626">
        <ele>912.118164</ele>
        <time>2021-02-03T09:34:53Z</time>
      </trkpt>
      <trkpt lat="43.98066" lon="7.26266">
        <ele>909.398071</ele>
        <time>2021-02-03T09:35:09Z</time>
      </trkpt>
      <trkpt lat="43.98078" lon="7.2628">
        <ele>911.342224</ele>
        <time>2021-02-03T09:35:24Z</time>
      </trkpt>
      <trkpt lat="43.9809" lon="7.26293">
        <ele>915.708374</ele>
        <time>2021-02-03T09:35:50Z</time>
      </trkpt>
      <trkpt lat="43.98082" lon="7.26278">
        <ele>908.603271</ele>
        <time>2021-02-03T09:36:23Z</time>
      </trkpt>
      <trkpt lat="43.98091" lon="7.26292">
        <ele>915.28064</ele>
        <time>2021-02-03T09:36:53Z</time>
      </trkpt>
      <trkpt lat="43.98099" lon="7.26307">
        <ele>923.346069</ele>
        <time>2021-02-03T09:37:37Z</time>
      </trkpt>
      <trkpt lat="43.98111" lon="7.263">
        <ele>920.17157</ele>
        <time>2021-02-03T09:38:02Z</time>
      </trkpt>
      <trkpt lat="43.98123" lon="7.26288">
        <ele>914.516235</ele>
        <time>2021-02-03T09:38:18Z</time>
      </trkpt>
      <trkpt lat="43.98132" lon="7.26271">
        <ele>906.33606</ele>
        <time>2021-02-03T09:38:34Z</time>
      </trkpt>
      <trkpt lat="43.98146" lon="7.26266">
        <ele>904.444214</ele>
        <time>2021-02-03T09:38:49Z</time>
      </trkpt>
      <trkpt lat="43.9816" lon="7.26271">
        <ele>907.541016</ele>
        <time>2021-02-03T09:39:08Z</time>
      </trkpt>
      <trkpt lat="43.98171" lon="7.26282">
        <ele>913.749878</ele>
        <time>2021-02-03T09:39:24Z</time>
      </trkpt>
      <trkpt lat="43.98186" lon="7.26292">
        <ele>919.237793</ele>
        <time>2021-02-03T09:39:40Z</time>
      </trkpt>
      <trkpt lat="43.98197" lon="7.26307">
        <ele>927.684937</ele>
        <time>2021-02-03T09:39:56Z</time>
      </trkpt>
      <trkpt lat="43.9821" lon="7.26298">
        <ele>923.563721</ele>
        <time>2021-02-03T09:40:11Z</time>
      </trkpt>
      <trkpt lat="43.98225" lon="7.26287">
        <ele>918.574097</ele>
        <time>2021-02-03T09:40:27Z</time>
      </trkpt>
      <trkpt lat="43.9824" lon="7.26278">
        <ele>915.166992</ele>
        <time>2021-02-03T09:40:42Z</time>
      </trkpt>
      <trkpt lat="43.98255" lon="7.26282">
        <ele>916.178345</ele>
        <time>2021-02-03T09:40:59Z</time>
      </trkpt>
      <trkpt lat="43.98267" lon="7.26293">
        <ele>918.353394</ele>
        <time>2021-02-03T09:41:17Z</time>
      </trkpt>
      <trkpt lat="43.98281" lon="7.26294">
        <ele>915.858154</ele>
        <time>2021-02-03T09:41:34Z</time>
      </trkpt>
      <trkpt lat="43.98295" lon="7.26304">
        <ele>917.755981</ele>
        <time>2021-02-03T09:49:23Z</time>
      </trkpt>
      <trkpt lat="43.98309" lon="7.26311">
        <ele>918.219482</ele>
        <time>2021-02-03T09:49:38Z</time>
      </trkpt>
      <trkpt lat="43.98326" lon="7.2632">
        <ele>919.778503</ele>
        <time>2021-02-03T09:49:53Z</time>
      </trkpt>
      <trkpt lat="43.98339" lon="7.26328">
        <ele>924.120911</ele>
        <time>2021-02-03T09:50:10Z</time>
      </trkpt>
      <trkpt lat="43.98356" lon="7.26322">
        <ele>924.218506</ele>
        <time>2021-02-03T09:50:26Z</time>
      </trkpt>
      <trkpt lat="43.98369" lon="7.26329">
        <ele>930.800171</ele>
        <time>2021-02-03T09:50:48Z</time>
      </trkpt>
      <trkpt lat="43.98384" lon="7.26331">
        <ele>935.083008</ele>
        <time>2021-02-03T09:51:04Z</time>
      </trkpt>
      <trkpt lat="43.98395" lon="7.26319">
        <ele>930.656738</ele>
        <time>2021-02-03T09:51:23Z</time>
      </trkpt>
      <trkpt lat="43.98409" lon="7.26313">
        <ele>930.825195</ele>
        <time>2021-02-03T09:51:44Z</time>
      </trkpt>
      <trkpt lat="43.98419" lon="7.263">
        <ele>926.08905</ele>
        <time>2021-02-03T09:52:03Z</time>
      </trkpt>
      <trkpt lat="43.98429" lon="7.26284">
        <ele>920.280396</ele>
        <time>2021-02-03T09:52:18Z</time>
      </trkpt>
      <trkpt lat="43.98444" lon="7.26284">
        <ele>923.175659</ele>
        <time>2021-02-03T09:52:36Z</time>
      </trkpt>
      <trkpt lat="43.98456" lon="7.26294">
        <ele>930.298645</ele>
        <time>2021-02-03T09:52:52Z</time>
      </trkpt>
      <trkpt lat="43.9847" lon="7.26298">
        <ele>934.96759</ele>
        <time>2021-02-03T09:53:08Z</time>
      </trkpt>
      <trkpt lat="43.98483" lon="7.263">
        <ele>938.231995</ele>
        <time>2021-02-03T09:53:24Z</time>
      </trkpt>
      <trkpt lat="43.98489" lon="7.26282">
        <ele>931.564026</ele>
        <time>2021-02-03T09:58:01Z</time>
      </trkpt>
      <trkpt lat="43.98494" lon="7.26262">
        <ele>924.145142</ele>
        <time>2021-02-03T09:58:16Z</time>
      </trkpt>
      <trkpt lat="43.98508" lon="7.26263">
        <ele>929.068726</ele>
        <time>2021-02-03T09:58:33Z</time>
      </trkpt>
      <trkpt lat="43.98518" lon="7.26276">
        <ele>937.21991</ele>
        <time>2021-02-03T09:58:53Z</time>
      </trkpt>
      <trkpt lat="43.98531" lon="7.26292">
        <ele>944.926636</ele>
        <time>2021-02-03T09:59:09Z</time>
      </trkpt>
      <trkpt lat="43.98544" lon="7.26301">
        <ele>949.179993</ele>
        <time>2021-02-03T09:59:25Z</time>
      </trkpt>
      <trkpt lat="43.98558" lon="7.26305">
        <ele>951.95752</ele>
        <time>2021-02-03T09:59:40Z</time>
      </trkpt>
      <trkpt lat="43.98572" lon="7.26306">
        <ele>954.009338</ele>
        <time>2021-02-03T09:59:56Z</time>
      </trkpt>
      <trkpt lat="43.98584" lon="7.26316">
        <ele>955.674805</ele>
        <time>2021-02-03T10:00:12Z</time>
      </trkpt>
      <trkpt lat="43.98598" lon="7.26319">
        <ele>965.430908</ele>
        <time>2021-02-03T10:00:30Z</time>
      </trkpt>
      <trkpt lat="43.98613" lon="7.26318">
        <ele>976.208679</ele>
        <time>2021-02-03T10:00:46Z</time>
      </trkpt>
      <trkpt lat="43.98616" lon="7.263">
        <ele>979.847656</ele>
        <time>2021-02-03T10:02:07Z</time>
      </trkpt>
      <trkpt lat="43.98611" lon="7.26281">
        <ele>978.440063</ele>
        <time>2021-02-03T10:02:23Z</time>
      </trkpt>
      <trkpt lat="43.98597" lon="7.26263">
        <ele>969.19043</ele>
        <time>2021-02-03T10:02:39Z</time>
      </trkpt>
      <trkpt lat="43.9859" lon="7.26242">
        <ele>963.779602</ele>
        <time>2021-02-03T10:02:55Z</time>
      </trkpt>
      <trkpt lat="43.98595" lon="7.26222">
        <ele>966.761841</ele>
        <time>2021-02-03T10:03:10Z</time>
      </trkpt>
      <trkpt lat="43.98597" lon="7.26196">
        <ele>966.751587</ele>
        <time>2021-02-03T10:03:26Z</time>
      </trkpt>
      <trkpt lat="43.98593" lon="7.26171">
        <ele>962.932129</ele>
        <time>2021-02-03T10:03:42Z</time>
      </trkpt>
      <trkpt lat="43.98583" lon="7.2615">
        <ele>948.123596</ele>
        <time>2021-02-03T10:03:58Z</time>
      </trkpt>
      <trkpt lat="43.98591" lon="7.26134">
        <ele>944.010681</ele>
        <time>2021-02-03T10:04:18Z</time>
      </trkpt>
      <trkpt lat="43.9861" lon="7.26127">
        <ele>951.095337</ele>
        <time>2021-02-03T10:04:34Z</time>
      </trkpt>
      <trkpt lat="43.98627" lon="7.26121">
        <ele>958.698853</ele>
        <time>2021-02-03T10:04:50Z</time>
      </trkpt>
      <trkpt lat="43.98641" lon="7.26114">
        <ele>963.982666</ele>
        <time>2021-02-03T10:05:05Z</time>
      </trkpt>
      <trkpt lat="43.98643" lon="7.26089">
        <ele>954.721436</ele>
        <time>2021-02-03T10:05:21Z</time>
      </trkpt>
      <trkpt lat="43.98654" lon="7.26077">
        <ele>958.044556</ele>
        <time>2021-02-03T10:05:37Z</time>
      </trkpt>
      <trkpt lat="43.98666" lon="7.26058">
        <ele>961.063477</ele>
        <time>2021-02-03T10:05:52Z</time>
      </trkpt>
      <trkpt lat="43.98672" lon="7.26031">
        <ele>955.976807</ele>
        <time>2021-02-03T10:06:08Z</time>
      </trkpt>
      <trkpt lat="43.98676" lon="7.26007">
        <ele>950.501221</ele>
        <time>2021-02-03T10:06:24Z</time>
      </trkpt>
      <trkpt lat="43.98683" lon="7.25991">
        <ele>947.675781</ele>
        <time>2021-02-03T10:06:40Z</time>
      </trkpt>
      <trkpt lat="43.98695" lon="7.25975">
        <ele>946.635254</ele>
        <time>2021-02-03T10:06:55Z</time>
      </trkpt>
      <trkpt lat="43.98707" lon="7.25961">
        <ele>946.045471</ele>
        <time>2021-02-03T10:07:11Z</time>
      </trkpt>
      <trkpt lat="43.98723" lon="7.25969">
        <ele>949.944946</ele>
        <time>2021-02-03T10:07:27Z</time>
      </trkpt>
      <trkpt lat="43.98735" lon="7.2598">
        <ele>953.570801</ele>
        <time>2021-02-03T10:07:43Z</time>
      </trkpt>
      <trkpt lat="43.98747" lon="7.25991">
        <ele>957.019104</ele>
        <time>2021-02-03T10:07:58Z</time>
      </trkpt>
      <trkpt lat="43.9876" lon="7.26004">
        <ele>961.073914</ele>
        <time>2021-02-03T10:08:14Z</time>
      </trkpt>
      <trkpt lat="43.98776" lon="7.26016">
        <ele>965.492188</ele>
        <time>2021-02-03T10:08:30Z</time>
      </trkpt>
      <trkpt lat="43.98788" lon="7.26024">
        <ele>967.552979</ele>
        <time>2021-02-03T10:08:48Z</time>
      </trkpt>
      <trkpt lat="43.98804" lon="7.26035">
        <ele>968.882568</ele>
        <time>2021-02-03T10:09:04Z</time>
      </trkpt>
      <trkpt lat="43.98818" lon="7.26045">
        <ele>968.907959</ele>
        <time>2021-02-03T10:09:19Z</time>
      </trkpt>
      <trkpt lat="43.98821" lon="7.26064">
        <ele>972.656311</ele>
        <time>2021-02-03T10:09:37Z</time>
      </trkpt>
      <trkpt lat="43.98833" lon="7.26074">
        <ele>970.567322</ele>
        <time>2021-02-03T10:09:54Z</time>
      </trkpt>
      <trkpt lat="43.98847" lon="7.2608">
        <ele>970.936462</ele>
        <time>2021-02-03T10:10:12Z</time>
      </trkpt>
      <trkpt lat="43.98861" lon="7.26088">
        <ele>973.681519</ele>
        <time>2021-02-03T10:10:28Z</time>
      </trkpt>
      <trkpt lat="43.98875" lon="7.26089">
        <ele>973.475159</ele>
        <time>2021-02-03T10:10:44Z</time>
      </trkpt>
      <trkpt lat="43.98891" lon="7.26094">
        <ele>976.02002</ele>
        <time>2021-02-03T10:11:00Z</time>
      </trkpt>
      <trkpt lat="43.98906" lon="7.26098">
        <ele>977.644165</ele>
        <time>2021-02-03T10:11:16Z</time>
      </trkpt>
      <trkpt lat="43.9892" lon="7.26104">
        <ele>981.49231</ele>
        <time>2021-02-03T10:11:33Z</time>
      </trkpt>
      <trkpt lat="43.98932" lon="7.26095">
        <ele>980.153931</ele>
        <time>2021-02-03T10:12:01Z</time>
      </trkpt>
      <trkpt lat="43.98945" lon="7.26087">
        <ele>979.9823</ele>
        <time>2021-02-03T10:12:16Z</time>
      </trkpt>
      <trkpt lat="43.98962" lon="7.26087">
        <ele>985.700317</ele>
        <time>2021-02-03T10:12:32Z</time>
      </trkpt>
      <trkpt lat="43.98976" lon="7.26094">
        <ele>993.66272</ele>
        <time>2021-02-03T10:12:47Z</time>
      </trkpt>
      <trkpt lat="43.9899" lon="7.26099">
        <ele>1000.082275</ele>
        <time>2021-02-03T10:13:05Z</time>
      </trkpt>
      <trkpt lat="43.99005" lon="7.26089">
        <ele>1003.28656</ele>
        <time>2021-02-03T10:13:21Z</time>
      </trkpt>
      <trkpt lat="43.99019" lon="7.26088">
        <ele>1013.430359</ele>
        <time>2021-02-03T10:13:37Z</time>
      </trkpt>
      <trkpt lat="43.99032" lon="7.26095">
        <ele>1024.094849</ele>
        <time>2021-02-03T10:13:55Z</time>
      </trkpt>
      <trkpt lat="43.99041" lon="7.2608">
        <ele>1028.387573</ele>
        <time>2021-02-03T10:16:09Z</time>
      </trkpt>
      <trkpt lat="43.99038" lon="7.26061">
        <ele>1026.810913</ele>
        <time>2021-02-03T10:16:24Z</time>
      </trkpt>
      <trkpt lat="43.99036" lon="7.26037">
        <ele>1025.169434</ele>
        <time>2021-02-03T10:16:39Z</time>
      </trkpt>
      <trkpt lat="43.99027" lon="7.26019">
        <ele>1018.021667</ele>
        <time>2021-02-03T10:16:55Z</time>
      </trkpt>
      <trkpt lat="43.99024" lon="7.25992">
        <ele>1015.727051</ele>
        <time>2021-02-03T10:17:11Z</time>
      </trkpt>
      <trkpt lat="43.99031" lon="7.25971">
        <ele>1021.323303</ele>
        <time>2021-02-03T10:17:26Z</time>
      </trkpt>
      <trkpt lat="43.99034" lon="7.25952">
        <ele>1023.121582</ele>
        <time>2021-02-03T10:17:41Z</time>
      </trkpt>
      <trkpt lat="43.99041" lon="7.25927">
        <ele>1027.483521</ele>
        <time>2021-02-03T10:17:57Z</time>
      </trkpt>
      <trkpt lat="43.99041" lon="7.25904">
        <ele>1028.367676</ele>
        <time>2021-02-03T10:18:13Z</time>
      </trkpt>
      <trkpt lat="43.99037" lon="7.25886">
        <ele>1026.302612</ele>
        <time>2021-02-03T10:18:33Z</time>
      </trkpt>
      <trkpt lat="43.99037" lon="7.25862">
        <ele>1027.409424</ele>
        <time>2021-02-03T10:18:49Z</time>
      </trkpt>
      <trkpt lat="43.99044" lon="7.25841">
        <ele>1033.500977</ele>
        <time>2021-02-03T10:19:05Z</time>
      </trkpt>
      <trkpt lat="43.99043" lon="7.2582">
        <ele>1033.846802</ele>
        <time>2021-02-03T10:19:21Z</time>
      </trkpt>
      <trkpt lat="43.99039" lon="7.25801">
        <ele>1031.730713</ele>
        <time>2021-02-03T10:19:37Z</time>
      </trkpt>
      <trkpt lat="43.99039" lon="7.2578">
        <ele>1033.038574</ele>
        <time>2021-02-03T10:19:53Z</time>
      </trkpt>
      <trkpt lat="43.9904" lon="7.25757">
        <ele>1034.248291</ele>
        <time>2021-02-03T10:20:08Z</time>
      </trkpt>
      <trkpt lat="43.99041" lon="7.25732">
        <ele>1032.249146</ele>
        <time>2021-02-03T10:20:24Z</time>
      </trkpt>
      <trkpt lat="43.99043" lon="7.25709">
        <ele>1029.516357</ele>
        <time>2021-02-03T10:20:39Z</time>
      </trkpt>
      <trkpt lat="43.99049" lon="7.25687">
        <ele>1027.375977</ele>
        <time>2021-02-03T10:20:55Z</time>
      </trkpt>
      <trkpt lat="43.99059" lon="7.25672">
        <ele>1026.161743</ele>
        <time>2021-02-03T10:21:11Z</time>
      </trkpt>
      <trkpt lat="43.99072" lon="7.25662">
        <ele>1027.191406</ele>
        <time>2021-02-03T10:21:26Z</time>
      </trkpt>
      <trkpt lat="43.99088" lon="7.25659">
        <ele>1029.445312</ele>
        <time>2021-02-03T10:21:43Z</time>
      </trkpt>
      <trkpt lat="43.99104" lon="7.25668">
        <ele>1031.130615</ele>
        <time>2021-02-03T10:21:58Z</time>
      </trkpt>
      <trkpt lat="43.99115" lon="7.25679">
        <ele>1036.77832</ele>
        <time>2021-02-03T10:23:28Z</time>
      </trkpt>
      <trkpt lat="43.99111" lon="7.2566">
        <ele>1032.413574</ele>
        <time>2021-02-03T10:25:31Z</time>
      </trkpt>
      <trkpt lat="43.99121" lon="7.25673">
        <ele>1035.498901</ele>
        <time>2021-02-03T10:31:41Z</time>
      </trkpt>
      <trkpt lat="43.99139" lon="7.25672">
        <ele>1037.630005</ele>
        <time>2021-02-03T10:31:57Z</time>
      </trkpt>
      <trkpt lat="43.99156" lon="7.25665">
        <ele>1037.71814</ele>
        <time>2021-02-03T10:32:12Z</time>
      </trkpt>
      <trkpt lat="43.99173" lon="7.25667">
        <ele>1039.940308</ele>
        <time>2021-02-03T10:32:28Z</time>
      </trkpt>
      <trkpt lat="43.99191" lon="7.25658">
        <ele>1043.169556</ele>
        <time>2021-02-03T10:32:43Z</time>
      </trkpt>
      <trkpt lat="43.99209" lon="7.25647">
        <ele>1045.974976</ele>
        <time>2021-02-03T10:32:58Z</time>
      </trkpt>
      <trkpt lat="43.99226" lon="7.25641">
        <ele>1048.018188</ele>
        <time>2021-02-03T10:33:14Z</time>
      </trkpt>
      <trkpt lat="43.99242" lon="7.25636">
        <ele>1049.689941</ele>
        <time>2021-02-03T10:33:29Z</time>
      </trkpt>
      <trkpt lat="43.99255" lon="7.25622">
        <ele>1051.165039</ele>
        <time>2021-02-03T10:33:52Z</time>
      </trkpt>
      <trkpt lat="43.99271" lon="7.25618">
        <ele>1055.621216</ele>
        <time>2021-02-03T10:34:07Z</time>
      </trkpt>
      <trkpt lat="43.99287" lon="7.25603">
        <ele>1058.018677</ele>
        <time>2021-02-03T10:34:22Z</time>
      </trkpt>
      <trkpt lat="43.99297" lon="7.25589">
        <ele>1058.494019</ele>
        <time>2021-02-03T10:34:40Z</time>
      </trkpt>
      <trkpt lat="43.9931" lon="7.25596">
        <ele>1062.45105</ele>
        <time>2021-02-03T10:35:08Z</time>
      </trkpt>
      <trkpt lat="43.99321" lon="7.25582">
        <ele>1062.511841</ele>
        <time>2021-02-03T10:35:24Z</time>
      </trkpt>
      <trkpt lat="43.99333" lon="7.25565">
        <ele>1064.723511</ele>
        <time>2021-02-03T10:35:40Z</time>
      </trkpt>
      <trkpt lat="43.99342" lon="7.25549">
        <ele>1068.331055</ele>
        <time>2021-02-03T10:35:56Z</time>
      </trkpt>
      <trkpt lat="43.99354" lon="7.25541">
        <ele>1073.459473</ele>
        <time>2021-02-03T10:36:14Z</time>
      </trkpt>
      <trkpt lat="43.9937" lon="7.25544">
        <ele>1080.213379</ele>
        <time>2021-02-03T10:36:30Z</time>
      </trkpt>
      <trkpt lat="43.99377" lon="7.25561">
        <ele>1084.419556</ele>
        <time>2021-02-03T10:37:39Z</time>
      </trkpt>
      <trkpt lat="43.9939" lon="7.25569">
        <ele>1090.477905</ele>
        <time>2021-02-03T10:37:57Z</time>
      </trkpt>
      <trkpt lat="43.994" lon="7.25582">
        <ele>1096.132446</ele>
        <time>2021-02-03T10:38:49Z</time>
      </trkpt>
      <trkpt lat="43.99414" lon="7.25585">
        <ele>1102.776367</ele>
        <time>2021-02-03T10:39:09Z</time>
      </trkpt>
      <trkpt lat="43.99416" lon="7.25566">
        <ele>1102.085083</ele>
        <time>2021-02-03T10:39:27Z</time>
      </trkpt>
      <trkpt lat="43.99415" lon="7.25547">
        <ele>1100.32666</ele>
        <time>2021-02-03T10:39:44Z</time>
      </trkpt>
      <trkpt lat="43.99416" lon="7.25525">
        <ele>1098.615234</ele>
        <time>2021-02-03T10:40:01Z</time>
      </trkpt>
      <trkpt lat="43.9942" lon="7.25506">
        <ele>1099.376465</ele>
        <time>2021-02-03T10:40:18Z</time>
      </trkpt>
      <trkpt lat="43.99431" lon="7.25494">
        <ele>1104.32019</ele>
        <time>2021-02-03T10:41:05Z</time>
      </trkpt>
      <trkpt lat="43.99443" lon="7.25487">
        <ele>1110.034424</ele>
        <time>2021-02-03T10:41:28Z</time>
      </trkpt>
      <trkpt lat="43.99441" lon="7.25506">
        <ele>1112.283569</ele>
        <time>2021-02-03T10:41:54Z</time>
      </trkpt>
      <trkpt lat="43.99453" lon="7.25492">
        <ele>1116.403564</ele>
        <time>2021-02-03T10:42:21Z</time>
      </trkpt>
      <trkpt lat="43.99461" lon="7.25506">
        <ele>1124.4375</ele>
        <time>2021-02-03T10:43:22Z</time>
      </trkpt>
      <trkpt lat="43.99472" lon="7.25494">
        <ele>1127.920654</ele>
        <time>2021-02-03T10:43:43Z</time>
      </trkpt>
      <trkpt lat="43.99482" lon="7.25481">
        <ele>1129.804199</ele>
        <time>2021-02-03T10:44:15Z</time>
      </trkpt>
      <trkpt lat="43.99494" lon="7.25472">
        <ele>1133.556885</ele>
        <time>2021-02-03T10:44:59Z</time>
      </trkpt>
      <trkpt lat="43.99505" lon="7.25455">
        <ele>1133.206543</ele>
        <time>2021-02-03T10:45:15Z</time>
      </trkpt>
      <trkpt lat="43.99517" lon="7.25444">
        <ele>1134.286011</ele>
        <time>2021-02-03T10:45:31Z</time>
      </trkpt>
      <trkpt lat="43.99536" lon="7.25436">
        <ele>1138.26709</ele>
        <time>2021-02-03T10:45:46Z</time>
      </trkpt>
      <trkpt lat="43.99549" lon="7.25421">
        <ele>1137.998535</ele>
        <time>2021-02-03T10:46:02Z</time>
      </trkpt>
      <trkpt lat="43.99562" lon="7.2541">
        <ele>1143.04834</ele>
        <time>2021-02-03T10:46:18Z</time>
      </trkpt>
      <trkpt lat="43.9958" lon="7.25399">
        <ele>1152.683716</ele>
        <time>2021-02-03T10:46:33Z</time>
      </trkpt>
      <trkpt lat="43.99596" lon="7.25398">
        <ele>1161.108154</ele>
        <time>2021-02-03T10:46:49Z</time>
      </trkpt>
      <trkpt lat="43.99611" lon="7.25395">
        <ele>1169.910767</ele>
        <time>2021-02-03T10:47:04Z</time>
      </trkpt>
      <trkpt lat="43.99624" lon="7.25403">
        <ele>1173.874756</ele>
        <time>2021-02-03T10:47:19Z</time>
      </trkpt>
      <trkpt lat="43.99638" lon="7.25398">
        <ele>1183.405151</ele>
        <time>2021-02-03T10:47:56Z</time>
      </trkpt>
      <trkpt lat="43.99646" lon="7.25381">
        <ele>1195.009766</ele>
        <time>2021-02-03T10:48:12Z</time>
      </trkpt>
      <trkpt lat="43.99644" lon="7.25362">
        <ele>1202.341675</ele>
        <time>2021-02-03T10:48:45Z</time>
      </trkpt>
      <trkpt lat="43.99643" lon="7.25343">
        <ele>1209.932007</ele>
        <time>2021-02-03T10:49:08Z</time>
      </trkpt>
      <trkpt lat="43.99642" lon="7.25323">
        <ele>1216.455566</ele>
        <time>2021-02-03T10:49:34Z</time>
      </trkpt>
      <trkpt lat="43.99637" lon="7.25305">
        <ele>1219.737915</ele>
        <time>2021-02-03T10:50:00Z</time>
      </trkpt>
      <trkpt lat="43.99628" lon="7.2529">
        <ele>1220.16333</ele>
        <time>2021-02-03T10:50:28Z</time>
      </trkpt>
      <trkpt lat="43.99621" lon="7.25274">
        <ele>1222.783081</ele>
        <time>2021-02-03T10:50:46Z</time>
      </trkpt>
      <trkpt lat="43.99608" lon="7.25269">
        <ele>1218.527222</ele>
        <time>2021-02-03T10:51:04Z</time>
      </trkpt>
      <trkpt lat="43.99596" lon="7.25257">
        <ele>1218.623535</ele>
        <time>2021-02-03T10:56:48Z</time>
      </trkpt>
      <trkpt lat="43.9959" lon="7.25239">
        <ele>1216.72876</ele>
        <time>2021-02-03T10:57:07Z</time>
      </trkpt>
      <trkpt lat="43.99579" lon="7.25228">
        <ele>1208.250732</ele>
        <time>2021-02-03T10:57:27Z</time>
      </trkpt>
      <trkpt lat="43.99569" lon="7.25213">
        <ele>1199.15564</ele>
        <time>2021-02-03T10:57:44Z</time>
      </trkpt>
      <trkpt lat="43.99556" lon="7.25205">
        <ele>1190.978027</ele>
        <time>2021-02-03T10:58:04Z</time>
      </trkpt>
      <trkpt lat="43.99563" lon="7.25189">
        <ele>1190.928345</ele>
        <time>2021-02-03T10:58:41Z</time>
      </trkpt>
      <trkpt lat="43.99577" lon="7.25192">
        <ele>1197.493408</ele>
        <time>2021-02-03T10:59:07Z</time>
      </trkpt>
      <trkpt lat="43.99589" lon="7.25183">
        <ele>1199.614746</ele>
        <time>2021-02-03T11:00:18Z</time>
      </trkpt>
      <trkpt lat="43.99601" lon="7.25193">
        <ele>1207.013428</ele>
        <time>2021-02-03T11:00:39Z</time>
      </trkpt>
      <trkpt lat="43.99613" lon="7.25203">
        <ele>1214.748169</ele>
        <time>2021-02-03T11:01:04Z</time>
      </trkpt>
      <trkpt lat="43.99627" lon="7.2521">
        <ele>1222.274414</ele>
        <time>2021-02-03T11:01:34Z</time>
      </trkpt>
      <trkpt lat="43.9964" lon="7.25211">
        <ele>1227.899658</ele>
        <time>2021-02-03T11:01:57Z</time>
      </trkpt>
      <trkpt lat="43.99647" lon="7.25194">
        <ele>1225.04248</ele>
        <time>2021-02-03T11:03:23Z</time>
      </trkpt>
      <trkpt lat="43.99662" lon="7.25194">
        <ele>1230.679321</ele>
        <time>2021-02-03T11:03:40Z</time>
      </trkpt>
      <trkpt lat="43.99676" lon="7.25195">
        <ele>1236.868042</ele>
        <time>2021-02-03T11:04:25Z</time>
      </trkpt>
      <trkpt lat="43.9969" lon="7.25191">
        <ele>1242.118408</ele>
        <time>2021-02-03T11:04:53Z</time>
      </trkpt>
      <trkpt lat="43.99705" lon="7.25193">
        <ele>1249.685059</ele>
        <time>2021-02-03T11:05:09Z</time>
      </trkpt>
      <trkpt lat="43.99721" lon="7.25193">
        <ele>1256.701416</ele>
        <time>2021-02-03T11:05:24Z</time>
      </trkpt>
      <trkpt lat="43.99734" lon="7.2519">
        <ele>1262.147095</ele>
        <time>2021-02-03T11:05:41Z</time>
      </trkpt>
      <trkpt lat="43.99722" lon="7.252">
        <ele>1259.0177</ele>
        <time>2021-02-03T11:06:00Z</time>
      </trkpt>
      <trkpt lat="43.9971" lon="7.25208">
        <ele>1256.011353</ele>
        <time>2021-02-03T11:06:20Z</time>
      </trkpt>
      <trkpt lat="43.99698" lon="7.25219">
        <ele>1254.409302</ele>
        <time>2021-02-03T11:06:37Z</time>
      </trkpt>
      <trkpt lat="43.99709" lon="7.25232">
        <ele>1262.499756</ele>
        <time>2021-02-03T11:07:34Z</time>
      </trkpt>
      <trkpt lat="43.99721" lon="7.2524">
        <ele>1269.465942</ele>
        <time>2021-02-03T11:08:11Z</time>
      </trkpt>
      <trkpt lat="43.99735" lon="7.25241">
        <ele>1275.374878</ele>
        <time>2021-02-03T11:08:54Z</time>
      </trkpt>
      <trkpt lat="43.99749" lon="7.25244">
        <ele>1281.463501</ele>
        <time>2021-02-03T11:09:18Z</time>
      </trkpt>
      <trkpt lat="43.99763" lon="7.25245">
        <ele>1288.981812</ele>
        <time>2021-02-03T11:09:38Z</time>
      </trkpt>
      <trkpt lat="43.99751" lon="7.25256">
        <ele>1284.498657</ele>
        <time>2021-02-03T11:10:03Z</time>
      </trkpt>
      <trkpt lat="43.99764" lon="7.25263">
        <ele>1292.375488</ele>
        <time>2021-02-03T11:18:01Z</time>
      </trkpt>
      <trkpt lat="43.99778" lon="7.25264">
        <ele>1299.910278</ele>
        <time>2021-02-03T11:18:26Z</time>
      </trkpt>
      <trkpt lat="43.99791" lon="7.25261">
        <ele>1306.756348</ele>
        <time>2021-02-03T11:18:42Z</time>
      </trkpt>
      <trkpt lat="43.99803" lon="7.25251">
        <ele>1311.567505</ele>
        <time>2021-02-03T11:19:04Z</time>
      </trkpt>
      <trkpt lat="43.99812" lon="7.25234">
        <ele>1314.642334</ele>
        <time>2021-02-03T11:19:19Z</time>
      </trkpt>
      <trkpt lat="43.99819" lon="7.25214">
        <ele>1316.386963</ele>
        <time>2021-02-03T11:19:35Z</time>
      </trkpt>
      <trkpt lat="43.99828" lon="7.25194">
        <ele>1320.123047</ele>
        <time>2021-02-03T11:19:50Z</time>
      </trkpt>
      <trkpt lat="43.99837" lon="7.25177">
        <ele>1324.247803</ele>
        <time>2021-02-03T11:20:06Z</time>
      </trkpt>
      <trkpt lat="43.99838" lon="7.25158">
        <ele>1323.012573</ele>
        <time>2021-02-03T11:20:25Z</time>
      </trkpt>
      <trkpt lat="43.99836" lon="7.25139">
        <ele>1319.287476</ele>
        <time>2021-02-03T11:20:41Z</time>
      </trkpt>
      <trkpt lat="43.99838" lon="7.25119">
        <ele>1317.991821</ele>
        <time>2021-02-03T11:20:56Z</time>
      </trkpt>
      <trkpt lat="43.99843" lon="7.25098">
        <ele>1318.123901</ele>
        <time>2021-02-03T11:21:12Z</time>
      </trkpt>
      <trkpt lat="43.99846" lon="7.25071">
        <ele>1315.65564</ele>
        <time>2021-02-03T11:21:28Z</time>
      </trkpt>
      <trkpt lat="43.99852" lon="7.25046">
        <ele>1313.80957</ele>
        <time>2021-02-03T11:21:44Z</time>
      </trkpt>
      <trkpt lat="43.99861" lon="7.25018">
        <ele>1312.50415</ele>
        <time>2021-02-03T11:22:00Z</time>
      </trkpt>
      <trkpt lat="43.99865" lon="7.24997">
        <ele>1309.469482</ele>
        <time>2021-02-03T11:22:15Z</time>
      </trkpt>
      <trkpt lat="43.99875" lon="7.24977">
        <ele>1304.521973</ele>
        <time>2021-02-03T11:22:30Z</time>
      </trkpt>
      <trkpt lat="43.99889" lon="7.24956">
        <ele>1300.729004</ele>
        <time>2021-02-03T11:22:46Z</time>
      </trkpt>
      <trkpt lat="43.99901" lon="7.24941">
        <ele>1298.612549</ele>
        <time>2021-02-03T11:23:01Z</time>
      </trkpt>
      <trkpt lat="43.99913" lon="7.24933">
        <ele>1300.135986</ele>
        <time>2021-02-03T11:23:16Z</time>
      </trkpt>
      <trkpt lat="43.99928" lon="7.24936">
        <ele>1303.529541</ele>
        <time>2021-02-03T11:23:37Z</time>
      </trkpt>
      <trkpt lat="43.99941" lon="7.2494">
        <ele>1305.985474</ele>
        <time>2021-02-03T11:23:55Z</time>
      </trkpt>
      <trkpt lat="43.99955" lon="7.24939">
        <ele>1305.957031</ele>
        <time>2021-02-03T11:24:11Z</time>
      </trkpt>
      <trkpt lat="43.9997" lon="7.24949">
        <ele>1311.757568</ele>
        <time>2021-02-03T11:24:26Z</time>
      </trkpt>
      <trkpt lat="43.99983" lon="7.24955">
        <ele>1315.092407</ele>
        <time>2021-02-03T11:24:42Z</time>
      </trkpt>
      <trkpt lat="43.99997" lon="7.24958">
        <ele>1316.756592</ele>
        <time>2021-02-03T11:25:04Z</time>
      </trkpt>
      <trkpt lat="44.0001" lon="7.24963">
        <ele>1322.600708</ele>
        <time>2021-02-03T11:25:20Z</time>
      </trkpt>
      <trkpt lat="44.00021" lon="7.2498">
        <ele>1333.041992</ele>
        <time>2021-02-03T11:25:35Z</time>
      </trkpt>
      <trkpt lat="44.0004" lon="7.24986">
        <ele>1339.439453</ele>
        <time>2021-02-03T11:25:51Z</time>
      </trkpt>
      <trkpt lat="44.00058" lon="7.24988">
        <ele>1343.384399</ele>
        <time>2021-02-03T11:26:07Z</time>
      </trkpt>
      <trkpt lat="44.00072" lon="7.24992">
        <ele>1346.850098</ele>
        <time>2021-02-03T11:26:24Z</time>
      </trkpt>
      <trkpt lat="44.0008" lon="7.25006">
        <ele>1351.223267</ele>
        <time>2021-02-03T11:26:45Z</time>
      </trkpt>
      <trkpt lat="44.00091" lon="7.25017">
        <ele>1355.64624</ele>
        <time>2021-02-03T11:27:02Z</time>
      </trkpt>
      <trkpt lat="44.00107" lon="7.2502">
        <ele>1358.911743</ele>
        <time>2021-02-03T11:27:18Z</time>
      </trkpt>
      <trkpt lat="44.00121" lon="7.25013">
        <ele>1360.026367</ele>
        <time>2021-02-03T11:27:35Z</time>
      </trkpt>
      <trkpt lat="44.00134" lon="7.2502">
        <ele>1363.467041</ele>
        <time>2021-02-03T11:27:52Z</time>
      </trkpt>
      <trkpt lat="44.00146" lon="7.25011">
        <ele>1364.298584</ele>
        <time>2021-02-03T11:28:09Z</time>
      </trkpt>
      <trkpt lat="44.00156" lon="7.24998">
        <ele>1364.74939</ele>
        <time>2021-02-03T11:28:25Z</time>
      </trkpt>
      <trkpt lat="44.00168" lon="7.24987">
        <ele>1366.883179</ele>
        <time>2021-02-03T11:28:48Z</time>
      </trkpt>
      <trkpt lat="44.00178" lon="7.24974">
        <ele>1369.110962</ele>
        <time>2021-02-03T11:29:04Z</time>
      </trkpt>
      <trkpt lat="44.00183" lon="7.24954">
        <ele>1369.754272</ele>
        <time>2021-02-03T11:29:32Z</time>
      </trkpt>
      <trkpt lat="44.00191" lon="7.2494">
        <ele>1371.931519</ele>
        <time>2021-02-03T11:29:51Z</time>
      </trkpt>
      <trkpt lat="44.00202" lon="7.24927">
        <ele>1374.840576</ele>
        <time>2021-02-03T11:30:17Z</time>
      </trkpt>
      <trkpt lat="44.00214" lon="7.24917">
        <ele>1378.062378</ele>
        <time>2021-02-03T11:30:38Z</time>
      </trkpt>
      <trkpt lat="44.00224" lon="7.24903">
        <ele>1381.190674</ele>
        <time>2021-02-03T11:30:57Z</time>
      </trkpt>
      <trkpt lat="44.00234" lon="7.2489">
        <ele>1384.308838</ele>
        <time>2021-02-03T11:31:16Z</time>
      </trkpt>
      <trkpt lat="44.0024" lon="7.24873">
        <ele>1386.467163</ele>
        <time>2021-02-03T11:31:38Z</time>
      </trkpt>
      <trkpt lat="44.00247" lon="7.24857">
        <ele>1388.756104</ele>
        <time>2021-02-03T11:32:01Z</time>
      </trkpt>
      <trkpt lat="44.00257" lon="7.24844">
        <ele>1392.94751</ele>
        <time>2021-02-03T11:32:25Z</time>
      </trkpt>
      <trkpt lat="44.00268" lon="7.24857">
        <ele>1397.498535</ele>
        <time>2021-02-03T11:32:59Z</time>
      </trkpt>
      <trkpt lat="44.00276" lon="7.24872">
        <ele>1400.807007</ele>
        <time>2021-02-03T11:33:15Z</time>
      </trkpt>
      <trkpt lat="44.0029" lon="7.24874">
        <ele>1406.453247</ele>
        <time>2021-02-03T11:33:37Z</time>
      </trkpt>
      <trkpt lat="44.00303" lon="7.24867">
        <ele>1412.474609</ele>
        <time>2021-02-03T11:34:02Z</time>
      </trkpt>
      <trkpt lat="44.00316" lon="7.24872">
        <ele>1417.788696</ele>
        <time>2021-02-03T11:34:37Z</time>
      </trkpt>
      <trkpt lat="44.00329" lon="7.24873">
        <ele>1423.46106</ele>
        <time>2021-02-03T11:35:02Z</time>
      </trkpt>
      <trkpt lat="44.00344" lon="7.24871">
        <ele>1431.46875</ele>
        <time>2021-02-03T11:35:25Z</time>
      </trkpt>
      <trkpt lat="44.00351" lon="7.24855">
        <ele>1437.589966</ele>
        <time>2021-02-03T11:35:57Z</time>
      </trkpt>
      <trkpt lat="44.00348" lon="7.24837">
        <ele>1437.999634</ele>
        <time>2021-02-03T11:36:25Z</time>
      </trkpt>
      <trkpt lat="44.00343" lon="7.24818">
        <ele>1437.24939</ele>
        <time>2021-02-03T11:36:42Z</time>
      </trkpt>
      <trkpt lat="44.00343" lon="7.24794">
        <ele>1440.057373</ele>
        <time>2021-02-03T11:36:58Z</time>
      </trkpt>
      <trkpt lat="44.00339" lon="7.24769">
        <ele>1440.636841</ele>
        <time>2021-02-03T11:37:14Z</time>
      </trkpt>
      <trkpt lat="44.00333" lon="7.24746">
        <ele>1439.483521</ele>
        <time>2021-02-03T11:37:30Z</time>
      </trkpt>
      <trkpt lat="44.00333" lon="7.24724">
        <ele>1437.862671</ele>
        <time>2021-02-03T11:37:46Z</time>
      </trkpt>
      <trkpt lat="44.00335" lon="7.24705">
        <ele>1437.660767</ele>
        <time>2021-02-03T11:38:14Z</time>
      </trkpt>
      <trkpt lat="44.00329" lon="7.24688">
        <ele>1434.138916</ele>
        <time>2021-02-03T11:38:36Z</time>
      </trkpt>
      <trkpt lat="44.00323" lon="7.2467">
        <ele>1431.425781</ele>
        <time>2021-02-03T11:38:54Z</time>
      </trkpt>
      <trkpt lat="44.00325" lon="7.24651">
        <ele>1426.220825</ele>
        <time>2021-02-03T11:39:14Z</time>
      </trkpt>
      <trkpt lat="44.00338" lon="7.24644">
        <ele>1428.416992</ele>
        <time>2021-02-03T11:39:55Z</time>
      </trkpt>
      <trkpt lat="44.00353" lon="7.24644">
        <ele>1434.973633</ele>
        <time>2021-02-03T11:40:28Z</time>
      </trkpt>
      <trkpt lat="44.00366" lon="7.24654">
        <ele>1443.798828</ele>
        <time>2021-02-03T11:40:53Z</time>
      </trkpt>
      <trkpt lat="44.00379" lon="7.24649">
        <ele>1448.088867</ele>
        <time>2021-02-03T11:41:16Z</time>
      </trkpt>
      <trkpt lat="44.0039" lon="7.24636">
        <ele>1448.953125</ele>
        <time>2021-02-03T11:41:32Z</time>
      </trkpt>
      <trkpt lat="44.004" lon="7.24616">
        <ele>1446.953979</ele>
        <time>2021-02-03T11:41:48Z</time>
      </trkpt>
      <trkpt lat="44.00405" lon="7.24633">
        <ele>1454.691284</ele>
        <time>2021-02-03T11:43:17Z</time>
      </trkpt>
      <trkpt lat="44.00401" lon="7.24655">
        <ele>1459.822998</ele>
        <time>2021-02-03T11:43:32Z</time>
      </trkpt>
      <trkpt lat="44.004" lon="7.24676">
        <ele>1464.312378</ele>
        <time>2021-02-03T11:43:47Z</time>
      </trkpt>
      <trkpt lat="44.00413" lon="7.24682">
        <ele>1471.349121</ele>
        <time>2021-02-03T11:44:15Z</time>
      </trkpt>
      <trkpt lat="44.00425" lon="7.2467">
        <ele>1474.829956</ele>
        <time>2021-02-03T11:44:32Z</time>
      </trkpt>
      <trkpt lat="44.00436" lon="7.2466">
        <ele>1478.71936</ele>
        <time>2021-02-03T11:44:47Z</time>
      </trkpt>
      <trkpt lat="44.00446" lon="7.24645">
        <ele>1479.991211</ele>
        <time>2021-02-03T11:45:05Z</time>
      </trkpt>
      <trkpt lat="44.00455" lon="7.24628">
        <ele>1481.040527</ele>
        <time>2021-02-03T11:45:35Z</time>
      </trkpt>
      <trkpt lat="44.00463" lon="7.24613">
        <ele>1481.474365</ele>
        <time>2021-02-03T11:45:53Z</time>
      </trkpt>
      <trkpt lat="44.00476" lon="7.24607">
        <ele>1488.471069</ele>
        <time>2021-02-03T11:46:24Z</time>
      </trkpt>
      <trkpt lat="44.00483" lon="7.24591">
        <ele>1489.043213</ele>
        <time>2021-02-03T11:46:45Z</time>
      </trkpt>
      <trkpt lat="44.00492" lon="7.24575">
        <ele>1490.996094</ele>
        <time>2021-02-03T11:47:23Z</time>
      </trkpt>
      <trkpt lat="44.00502" lon="7.24562">
        <ele>1495.113525</ele>
        <time>2021-02-03T11:47:40Z</time>
      </trkpt>
      <trkpt lat="44.00507" lon="7.24544">
        <ele>1494.396118</ele>
        <time>2021-02-03T11:47:59Z</time>
      </trkpt>
      <trkpt lat="44.00517" lon="7.24532">
        <ele>1498.432861</ele>
        <time>2021-02-03T11:48:27Z</time>
      </trkpt>
      <trkpt lat="44.00531" lon="7.24531">
        <ele>1505.784668</ele>
        <time>2021-02-03T11:48:46Z</time>
      </trkpt>
      <trkpt lat="44.00544" lon="7.24523">
        <ele>1511.572754</ele>
        <time>2021-02-03T11:49:04Z</time>
      </trkpt>
      <trkpt lat="44.00557" lon="7.24516">
        <ele>1517.872925</ele>
        <time>2021-02-03T11:49:31Z</time>
      </trkpt>
      <trkpt lat="44.00555" lon="7.24497">
        <ele>1514.34729</ele>
        <time>2021-02-03T11:50:30Z</time>
      </trkpt>
      <trkpt lat="44.00563" lon="7.24481">
        <ele>1517.746704</ele>
        <time>2021-02-03T11:51:03Z</time>
      </trkpt>
      <trkpt lat="44.00573" lon="7.24467">
        <ele>1521.612793</ele>
        <time>2021-02-03T11:51:24Z</time>
      </trkpt>
      <trkpt lat="44.00577" lon="7.24449">
        <ele>1522.106689</ele>
        <time>2021-02-03T11:51:42Z</time>
      </trkpt>
      <trkpt lat="44.00584" lon="7.24432">
        <ele>1523.876099</ele>
        <time>2021-02-03T11:51:58Z</time>
      </trkpt>
      <trkpt lat="44.00596" lon="7.24422">
        <ele>1528.440796</ele>
        <time>2021-02-03T11:52:21Z</time>
      </trkpt>
      <trkpt lat="44.00608" lon="7.24414">
        <ele>1533.341675</ele>
        <time>2021-02-03T11:52:39Z</time>
      </trkpt>
      <trkpt lat="44.00621" lon="7.24406">
        <ele>1539.371216</ele>
        <time>2021-02-03T11:52:55Z</time>
      </trkpt>
      <trkpt lat="44.00635" lon="7.24395">
        <ele>1545.793335</ele>
        <time>2021-02-03T11:53:14Z</time>
      </trkpt>
      <trkpt lat="44.00642" lon="7.24377">
        <ele>1549.525513</ele>
        <time>2021-02-03T11:53:38Z</time>
      </trkpt>
      <trkpt lat="44.00649" lon="7.24361">
        <ele>1553.463623</ele>
        <time>2021-02-03T11:53:54Z</time>
      </trkpt>
      <trkpt lat="44.0066" lon="7.24346">
        <ele>1559.114258</ele>
        <time>2021-02-03T11:54:10Z</time>
      </trkpt>
      <trkpt lat="44.0066" lon="7.24326">
        <ele>1560.100952</ele>
        <time>2021-02-03T11:54:37Z</time>
      </trkpt>
      <trkpt lat="44.0066" lon="7.24306">
        <ele>1561.726196</ele>
        <time>2021-02-03T11:54:58Z</time>
      </trkpt>
      <trkpt lat="44.0066" lon="7.24286">
        <ele>1563.037354</ele>
        <time>2021-02-03T11:55:17Z</time>
      </trkpt>
      <trkpt lat="44.00664" lon="7.24266">
        <ele>1566.241577</ele>
        <time>2021-02-03T11:55:40Z</time>
      </trkpt>
      <trkpt lat="44.00661" lon="7.24247">
        <ele>1566.205322</ele>
        <time>2021-02-03T11:56:02Z</time>
      </trkpt>
      <trkpt lat="44.00652" lon="7.24234">
        <ele>1561.459229</ele>
        <time>2021-02-03T11:57:19Z</time>
      </trkpt>
      <trkpt lat="44.00664" lon="7.24223">
        <ele>1568.139282</ele>
        <time>2021-02-03T11:58:54Z</time>
      </trkpt>
      <trkpt lat="44.00671" lon="7.24206">
        <ele>1571.134277</ele>
        <time>2021-02-03T11:59:18Z</time>
      </trkpt>
      <trkpt lat="44.00684" lon="7.24199">
        <ele>1575.733521</ele>
        <time>2021-02-03T11:59:49Z</time>
      </trkpt>
      <trkpt lat="44.00698" lon="7.24194">
        <ele>1580.188477</ele>
        <time>2021-02-03T12:00:21Z</time>
      </trkpt>
      <trkpt lat="44.00706" lon="7.24177">
        <ele>1582.344238</ele>
        <time>2021-02-03T12:00:49Z</time>
      </trkpt>
      <trkpt lat="44.00717" lon="7.24166">
        <ele>1585.178223</ele>
        <time>2021-02-03T12:01:16Z</time>
      </trkpt>
      <trkpt lat="44.00729" lon="7.24155">
        <ele>1588.452881</ele>
        <time>2021-02-03T12:01:44Z</time>
      </trkpt>
      <trkpt lat="44.00743" lon="7.24145">
        <ele>1592.50293</ele>
        <time>2021-02-03T12:02:00Z</time>
      </trkpt>
      <trkpt lat="44.00754" lon="7.24135">
        <ele>1595.814941</ele>
        <time>2021-02-03T12:02:21Z</time>
      </trkpt>
      <trkpt lat="44.00767" lon="7.24127">
        <ele>1599.478394</ele>
        <time>2021-02-03T12:02:39Z</time>
      </trkpt>
      <trkpt lat="44.00779" lon="7.24116">
        <ele>1602.4104</ele>
        <time>2021-02-03T12:03:02Z</time>
      </trkpt>
      <trkpt lat="44.00791" lon="7.24105">
        <ele>1605.026123</ele>
        <time>2021-02-03T12:03:22Z</time>
      </trkpt>
      <trkpt lat="44.00804" lon="7.24098">
        <ele>1607.963867</ele>
        <time>2021-02-03T12:03:45Z</time>
      </trkpt>
      <trkpt lat="44.00816" lon="7.2409">
        <ele>1610.387573</ele>
        <time>2021-02-03T12:04:17Z</time>
      </trkpt>
      <trkpt lat="44.00829" lon="7.24093">
        <ele>1614.059082</ele>
        <time>2021-02-03T12:07:35Z</time>
      </trkpt>
      <trkpt lat="44.00843" lon="7.2409">
        <ele>1617.658447</ele>
        <time>2021-02-03T12:08:46Z</time>
      </trkpt>
      <trkpt lat="44.0085" lon="7.24073">
        <ele>1618.782593</ele>
        <time>2021-02-03T12:09:16Z</time>
      </trkpt>
      <trkpt lat="44.00864" lon="7.24075">
        <ele>1622.971191</ele>
        <time>2021-02-03T12:10:24Z</time>
      </trkpt>
      <trkpt lat="44.00877" lon="7.24069">
        <ele>1626.700806</ele>
        <time>2021-02-03T12:10:57Z</time>
      </trkpt>
      <trkpt lat="44.00891" lon="7.24069">
        <ele>1630.992065</ele>
        <time>2021-02-03T12:11:44Z</time>
      </trkpt>
      <trkpt lat="44.00898" lon="7.24085">
        <ele>1633.607422</ele>
        <time>2021-02-03T12:12:53Z</time>
      </trkpt>
      <trkpt lat="44.00912" lon="7.24085">
        <ele>1637.770508</ele>
        <time>2021-02-03T12:13:44Z</time>
      </trkpt>
      <trkpt lat="44.00921" lon="7.24071">
        <ele>1640.406494</ele>
        <time>2021-02-03T12:14:04Z</time>
      </trkpt>
      <trkpt lat="44.00935" lon="7.24076">
        <ele>1644.977539</ele>
        <time>2021-02-03T12:15:51Z</time>
      </trkpt>
      <trkpt lat="44.00949" lon="7.24075">
        <ele>1649.445557</ele>
        <time>2021-02-03T12:16:29Z</time>
      </trkpt>
      <trkpt lat="44.00962" lon="7.2407">
        <ele>1653.557617</ele>
        <time>2021-02-03T12:16:51Z</time>
      </trkpt>
      <trkpt lat="44.00974" lon="7.24062">
        <ele>1657.05542</ele>
        <time>2021-02-03T12:17:09Z</time>
      </trkpt>
      <trkpt lat="44.00986" lon="7.24052">
        <ele>1660.384277</ele>
        <time>2021-02-03T12:18:19Z</time>
      </trkpt>
      <trkpt lat="44.0099" lon="7.24071">
        <ele>1662.817017</ele>
        <time>2021-02-03T12:19:29Z</time>
      </trkpt>
      <trkpt lat="44.00994" lon="7.24089">
        <ele>1665.637085</ele>
        <time>2021-02-03T12:20:07Z</time>
      </trkpt>
      <trkpt lat="44.01007" lon="7.24082">
        <ele>1669.6875</ele>
        <time>2021-02-03T12:25:20Z</time>
      </trkpt>
      <trkpt lat="44.00993" lon="7.24081">
        <ele>1664.356201</ele>
        <time>2021-02-03T12:52:04Z</time>
      </trkpt>
      <trkpt lat="44.00988" lon="7.24099">
        <ele>1665.1875</ele>
        <time>2021-02-03T12:52:26Z</time>
      </trkpt>
      <trkpt lat="44.00981" lon="7.24116">
        <ele>1664.880127</ele>
        <time>2021-02-03T12:52:59Z</time>
      </trkpt>
      <trkpt lat="44.00973" lon="7.24135">
        <ele>1664.677368</ele>
        <time>2021-02-03T12:53:15Z</time>
      </trkpt>
      <trkpt lat="44.00967" lon="7.24156">
        <ele>1665.179932</ele>
        <time>2021-02-03T12:53:31Z</time>
      </trkpt>
      <trkpt lat="44.00957" lon="7.2418">
        <ele>1664.659424</ele>
        <time>2021-02-03T12:53:47Z</time>
      </trkpt>
      <trkpt lat="44.0095" lon="7.24204">
        <ele>1665.230469</ele>
        <time>2021-02-03T12:54:02Z</time>
      </trkpt>
      <trkpt lat="44.00947" lon="7.24222">
        <ele>1666.342651</ele>
        <time>2021-02-03T12:54:17Z</time>
      </trkpt>
      <trkpt lat="44.00941" lon="7.24242">
        <ele>1666.910278</ele>
        <time>2021-02-03T12:54:33Z</time>
      </trkpt>
      <trkpt lat="44.00936" lon="7.24266">
        <ele>1667.601074</ele>
        <time>2021-02-03T12:54:49Z</time>
      </trkpt>
      <trkpt lat="44.0093" lon="7.24288">
        <ele>1668.011108</ele>
        <time>2021-02-03T12:55:04Z</time>
      </trkpt>
      <trkpt lat="44.00926" lon="7.24307">
        <ele>1668.495361</ele>
        <time>2021-02-03T12:55:19Z</time>
      </trkpt>
      <trkpt lat="44.00921" lon="7.24325">
        <ele>1668.551514</ele>
        <time>2021-02-03T12:55:35Z</time>
      </trkpt>
      <trkpt lat="44.00914" lon="7.24343">
        <ele>1667.910889</ele>
        <time>2021-02-03T12:55:50Z</time>
      </trkpt>
      <trkpt lat="44.0091" lon="7.24366">
        <ele>1667.877563</ele>
        <time>2021-02-03T12:56:06Z</time>
      </trkpt>
      <trkpt lat="44.00904" lon="7.2439">
        <ele>1667.318604</ele>
        <time>2021-02-03T12:56:22Z</time>
      </trkpt>
      <trkpt lat="44.009" lon="7.24413">
        <ele>1666.99646</ele>
        <time>2021-02-03T12:56:37Z</time>
      </trkpt>
      <trkpt lat="44.009" lon="7.2444">
        <ele>1668.901855</ele>
        <time>2021-02-03T12:56:53Z</time>
      </trkpt>
      <trkpt lat="44.00899" lon="7.24462">
        <ele>1669.926636</ele>
        <time>2021-02-03T12:57:09Z</time>
      </trkpt>
      <trkpt lat="44.00898" lon="7.24482">
        <ele>1670.796265</ele>
        <time>2021-02-03T12:57:34Z</time>
      </trkpt>
      <trkpt lat="44.00897" lon="7.24501">
        <ele>1671.67334</ele>
        <time>2021-02-03T12:58:10Z</time>
      </trkpt>
      <trkpt lat="44.009" lon="7.2452">
        <ele>1672.80603</ele>
        <time>2021-02-03T12:58:30Z</time>
      </trkpt>
      <trkpt lat="44.00903" lon="7.24539">
        <ele>1674.236328</ele>
        <time>2021-02-03T12:58:48Z</time>
      </trkpt>
      <trkpt lat="44.00906" lon="7.24558">
        <ele>1675.77356</ele>
        <time>2021-02-03T12:59:10Z</time>
      </trkpt>
      <trkpt lat="44.00909" lon="7.24577">
        <ele>1677.036377</ele>
        <time>2021-02-03T12:59:30Z</time>
      </trkpt>
      <trkpt lat="44.00913" lon="7.24596">
        <ele>1678.886719</ele>
        <time>2021-02-03T12:59:50Z</time>
      </trkpt>
      <trkpt lat="44.00915" lon="7.24615">
        <ele>1679.759521</ele>
        <time>2021-02-03T13:00:09Z</time>
      </trkpt>
      <trkpt lat="44.00918" lon="7.24635">
        <ele>1680.836426</ele>
        <time>2021-02-03T13:00:25Z</time>
      </trkpt>
      <trkpt lat="44.00921" lon="7.24653">
        <ele>1682.137939</ele>
        <time>2021-02-03T13:00:41Z</time>
      </trkpt>
      <trkpt lat="44.00924" lon="7.24672">
        <ele>1683.061646</ele>
        <time>2021-02-03T13:00:57Z</time>
      </trkpt>
      <trkpt lat="44.00927" lon="7.24692">
        <ele>1683.684692</ele>
        <time>2021-02-03T13:01:14Z</time>
      </trkpt>
      <trkpt lat="44.00929" lon="7.24711">
        <ele>1684.208618</ele>
        <time>2021-02-03T13:01:29Z</time>
      </trkpt>
      <trkpt lat="44.00926" lon="7.2473">
        <ele>1683.433838</ele>
        <time>2021-02-03T13:01:48Z</time>
      </trkpt>
      <trkpt lat="44.00924" lon="7.2475">
        <ele>1682.910522</ele>
        <time>2021-02-03T13:02:26Z</time>
      </trkpt>
      <trkpt lat="44.00918" lon="7.24766">
        <ele>1682.093262</ele>
        <time>2021-02-03T13:02:48Z</time>
      </trkpt>
      <trkpt lat="44.00914" lon="7.24785">
        <ele>1681.982666</ele>
        <time>2021-02-03T13:03:07Z</time>
      </trkpt>
      <trkpt lat="44.00913" lon="7.24803">
        <ele>1682.506104</ele>
        <time>2021-02-03T13:03:27Z</time>
      </trkpt>
      <trkpt lat="44.00906" lon="7.2482">
        <ele>1681.273926</ele>
        <time>2021-02-03T13:03:43Z</time>
      </trkpt>
      <trkpt lat="44.00906" lon="7.24841">
        <ele>1682.310547</ele>
        <time>2021-02-03T13:03:59Z</time>
      </trkpt>
      <trkpt lat="44.00907" lon="7.2486">
        <ele>1683.226685</ele>
        <time>2021-02-03T13:04:40Z</time>
      </trkpt>
      <trkpt lat="44.00907" lon="7.24881">
        <ele>1683.767578</ele>
        <time>2021-02-03T13:04:55Z</time>
      </trkpt>
      <trkpt lat="44.00905" lon="7.24904">
        <ele>1684.094238</ele>
        <time>2021-02-03T13:05:11Z</time>
      </trkpt>
      <trkpt lat="44.00906" lon="7.24926">
        <ele>1684.86731</ele>
        <time>2021-02-03T13:05:26Z</time>
      </trkpt>
      <trkpt lat="44.00892" lon="7.24919">
        <ele>1682.004883</ele>
        <time>2021-02-03T13:06:39Z</time>
      </trkpt>
      <trkpt lat="44.00878" lon="7.24914">
        <ele>1678.87146</ele>
        <time>2021-02-03T13:06:55Z</time>
      </trkpt>
      <trkpt lat="44.00864" lon="7.24918">
        <ele>1676.289795</ele>
        <time>2021-02-03T13:07:14Z</time>
      </trkpt>
      <trkpt lat="44.0085" lon="7.2492">
        <ele>1673.583008</ele>
        <time>2021-02-03T13:07:38Z</time>
      </trkpt>
      <trkpt lat="44.00836" lon="7.24918">
        <ele>1670.512817</ele>
        <time>2021-02-03T13:07:55Z</time>
      </trkpt>
      <trkpt lat="44.0082" lon="7.24917">
        <ele>1668.282471</ele>
        <time>2021-02-03T13:08:11Z</time>
      </trkpt>
      <trkpt lat="44.00807" lon="7.24914">
        <ele>1666.207642</ele>
        <time>2021-02-03T13:08:28Z</time>
      </trkpt>
      <trkpt lat="44.00791" lon="7.24912">
        <ele>1663.736572</ele>
        <time>2021-02-03T13:08:44Z</time>
      </trkpt>
      <trkpt lat="44.00777" lon="7.24912">
        <ele>1661.831543</ele>
        <time>2021-02-03T13:09:01Z</time>
      </trkpt>
      <trkpt lat="44.00762" lon="7.24913">
        <ele>1659.964478</ele>
        <time>2021-02-03T13:09:16Z</time>
      </trkpt>
      <trkpt lat="44.00743" lon="7.24914">
        <ele>1655.870483</ele>
        <time>2021-02-03T13:09:32Z</time>
      </trkpt>
      <trkpt lat="44.0073" lon="7.24924">
        <ele>1652.535278</ele>
        <time>2021-02-03T13:09:47Z</time>
      </trkpt>
      <trkpt lat="44.00715" lon="7.24937">
        <ele>1649.293823</ele>
        <time>2021-02-03T13:10:03Z</time>
      </trkpt>
      <trkpt lat="44.00703" lon="7.24946">
        <ele>1646.692871</ele>
        <time>2021-02-03T13:10:19Z</time>
      </trkpt>
      <trkpt lat="44.00689" lon="7.24957">
        <ele>1644.429199</ele>
        <time>2021-02-03T13:10:35Z</time>
      </trkpt>
      <trkpt lat="44.00678" lon="7.24971">
        <ele>1644.324463</ele>
        <time>2021-02-03T13:10:50Z</time>
      </trkpt>
      <trkpt lat="44.00666" lon="7.24984">
        <ele>1643.873413</ele>
        <time>2021-02-03T13:11:05Z</time>
      </trkpt>
      <trkpt lat="44.00659" lon="7.25">
        <ele>1643.581299</ele>
        <time>2021-02-03T13:11:21Z</time>
      </trkpt>
      <trkpt lat="44.00659" lon="7.2502">
        <ele>1643.84436</ele>
        <time>2021-02-03T13:11:42Z</time>
      </trkpt>
      <trkpt lat="44.00667" lon="7.25036">
        <ele>1647.692261</ele>
        <time>2021-02-03T13:11:59Z</time>
      </trkpt>
      <trkpt lat="44.00675" lon="7.25051">
        <ele>1648.984131</ele>
        <time>2021-02-03T13:12:15Z</time>
      </trkpt>
      <trkpt lat="44.00686" lon="7.25067">
        <ele>1650.612793</ele>
        <time>2021-02-03T13:12:31Z</time>
      </trkpt>
      <trkpt lat="44.00702" lon="7.2508">
        <ele>1652.970703</ele>
        <time>2021-02-03T13:12:47Z</time>
      </trkpt>
      <trkpt lat="44.0071" lon="7.25095">
        <ele>1650.913574</ele>
        <time>2021-02-03T13:13:33Z</time>
      </trkpt>
      <trkpt lat="44.00725" lon="7.25101">
        <ele>1651.817139</ele>
        <time>2021-02-03T13:14:52Z</time>
      </trkpt>
      <trkpt lat="44.00736" lon="7.25111">
        <ele>1651.279297</ele>
        <time>2021-02-03T13:15:07Z</time>
      </trkpt>
      <trkpt lat="44.00747" lon="7.25125">
        <ele>1649.362549</ele>
        <time>2021-02-03T13:15:22Z</time>
      </trkpt>
      <trkpt lat="44.00762" lon="7.25137">
        <ele>1649.010254</ele>
        <time>2021-02-03T13:15:38Z</time>
      </trkpt>
      <trkpt lat="44.00771" lon="7.25152">
        <ele>1647.121094</ele>
        <time>2021-02-03T13:15:53Z</time>
      </trkpt>
      <trkpt lat="44.0078" lon="7.25168">
        <ele>1645.101807</ele>
        <time>2021-02-03T13:16:09Z</time>
      </trkpt>
      <trkpt lat="44.00793" lon="7.25184">
        <ele>1641.990479</ele>
        <time>2021-02-03T13:16:25Z</time>
      </trkpt>
      <trkpt lat="44.00807" lon="7.25193">
        <ele>1641.660645</ele>
        <time>2021-02-03T13:16:41Z</time>
      </trkpt>
      <trkpt lat="44.00823" lon="7.25208">
        <ele>1640.183716</ele>
        <time>2021-02-03T13:16:56Z</time>
      </trkpt>
      <trkpt lat="44.0084" lon="7.25221">
        <ele>1639.251099</ele>
        <time>2021-02-03T13:17:12Z</time>
      </trkpt>
      <trkpt lat="44.00853" lon="7.25232">
        <ele>1637.883545</ele>
        <time>2021-02-03T13:17:27Z</time>
      </trkpt>
      <trkpt lat="44.00862" lon="7.25249">
        <ele>1634.21167</ele>
        <time>2021-02-03T13:17:43Z</time>
      </trkpt>
      <trkpt lat="44.00872" lon="7.25264">
        <ele>1630.897949</ele>
        <time>2021-02-03T13:18:00Z</time>
      </trkpt>
      <trkpt lat="44.00883" lon="7.25281">
        <ele>1627.232178</ele>
        <time>2021-02-03T13:18:16Z</time>
      </trkpt>
      <trkpt lat="44.00889" lon="7.25304">
        <ele>1620.150146</ele>
        <time>2021-02-03T13:18:31Z</time>
      </trkpt>
      <trkpt lat="44.00901" lon="7.25318">
        <ele>1618.848022</ele>
        <time>2021-02-03T13:18:47Z</time>
      </trkpt>
      <trkpt lat="44.00901" lon="7.25338">
        <ele>1612.227905</ele>
        <time>2021-02-03T13:19:02Z</time>
      </trkpt>
      <trkpt lat="44.009" lon="7.25357">
        <ele>1606.607422</ele>
        <time>2021-02-03T13:19:18Z</time>
      </trkpt>
      <trkpt lat="44.00897" lon="7.25338">
        <ele>1610.591797</ele>
        <time>2021-02-03T13:19:36Z</time>
      </trkpt>
      <trkpt lat="44.00886" lon="7.25324">
        <ele>1611.388672</ele>
        <time>2021-02-03T13:19:52Z</time>
      </trkpt>
      <trkpt lat="44.00873" lon="7.25313">
        <ele>1611.418457</ele>
        <time>2021-02-03T13:20:07Z</time>
      </trkpt>
      <trkpt lat="44.00862" lon="7.25302">
        <ele>1612.387939</ele>
        <time>2021-02-03T13:20:26Z</time>
      </trkpt>
      <trkpt lat="44.00852" lon="7.2529">
        <ele>1614.212158</ele>
        <time>2021-02-03T13:20:44Z</time>
      </trkpt>
      <trkpt lat="44.00834" lon="7.25291">
        <ele>1608.576294</ele>
        <time>2021-02-03T13:21:00Z</time>
      </trkpt>
      <trkpt lat="44.00819" lon="7.25288">
        <ele>1605.950439</ele>
        <time>2021-02-03T13:21:16Z</time>
      </trkpt>
      <trkpt lat="44.00803" lon="7.25286">
        <ele>1602.716309</ele>
        <time>2021-02-03T13:21:31Z</time>
      </trkpt>
      <trkpt lat="44.00784" lon="7.25288">
        <ele>1596.669678</ele>
        <time>2021-02-03T13:21:47Z</time>
      </trkpt>
      <trkpt lat="44.00769" lon="7.25274">
        <ele>1598.791992</ele>
        <time>2021-02-03T13:22:03Z</time>
      </trkpt>
      <trkpt lat="44.0075" lon="7.2527">
        <ele>1595.795288</ele>
        <time>2021-02-03T13:22:19Z</time>
      </trkpt>
      <trkpt lat="44.00737" lon="7.25267">
        <ele>1594.141602</ele>
        <time>2021-02-03T13:22:37Z</time>
      </trkpt>
      <trkpt lat="44.00717" lon="7.25261">
        <ele>1592.487061</ele>
        <time>2021-02-03T13:22:53Z</time>
      </trkpt>
      <trkpt lat="44.007" lon="7.2525">
        <ele>1593.892944</ele>
        <time>2021-02-03T13:23:08Z</time>
      </trkpt>
      <trkpt lat="44.00685" lon="7.25248">
        <ele>1590.96936</ele>
        <time>2021-02-03T13:23:24Z</time>
      </trkpt>
      <trkpt lat="44.00668" lon="7.25247">
        <ele>1587.419434</ele>
        <time>2021-02-03T13:23:39Z</time>
      </trkpt>
      <trkpt lat="44.0065" lon="7.25248">
        <ele>1582.948975</ele>
        <time>2021-02-03T13:23:55Z</time>
      </trkpt>
      <trkpt lat="44.00629" lon="7.25252">
        <ele>1576.846924</ele>
        <time>2021-02-03T13:24:10Z</time>
      </trkpt>
      <trkpt lat="44.00615" lon="7.2524">
        <ele>1578.432373</ele>
        <time>2021-02-03T13:24:25Z</time>
      </trkpt>
      <trkpt lat="44.00602" lon="7.25227">
        <ele>1580.580688</ele>
        <time>2021-02-03T13:24:41Z</time>
      </trkpt>
      <trkpt lat="44.00584" lon="7.2522">
        <ele>1579.187744</ele>
        <time>2021-02-03T13:24:57Z</time>
      </trkpt>
      <trkpt lat="44.00568" lon="7.25216">
        <ele>1578.6073</ele>
        <time>2021-02-03T13:25:12Z</time>
      </trkpt>
      <trkpt lat="44.00553" lon="7.25221">
        <ele>1574.454346</ele>
        <time>2021-02-03T13:25:28Z</time>
      </trkpt>
      <trkpt lat="44.0054" lon="7.2523">
        <ele>1570.21167</ele>
        <time>2021-02-03T13:25:44Z</time>
      </trkpt>
      <trkpt lat="44.00522" lon="7.25238">
        <ele>1566.587891</ele>
        <time>2021-02-03T13:26:00Z</time>
      </trkpt>
      <trkpt lat="44.00508" lon="7.25244">
        <ele>1564.474609</ele>
        <time>2021-02-03T13:26:15Z</time>
      </trkpt>
      <trkpt lat="44.00489" lon="7.25249">
        <ele>1558.36438</ele>
        <time>2021-02-03T13:26:31Z</time>
      </trkpt>
      <trkpt lat="44.00473" lon="7.25254">
        <ele>1550.40332</ele>
        <time>2021-02-03T13:26:47Z</time>
      </trkpt>
      <trkpt lat="44.00453" lon="7.2526">
        <ele>1540.500977</ele>
        <time>2021-02-03T13:27:02Z</time>
      </trkpt>
      <trkpt lat="44.00439" lon="7.25266">
        <ele>1533.886841</ele>
        <time>2021-02-03T13:27:17Z</time>
      </trkpt>
      <trkpt lat="44.00424" lon="7.25265">
        <ele>1528.735474</ele>
        <time>2021-02-03T13:27:33Z</time>
      </trkpt>
      <trkpt lat="44.00408" lon="7.25268">
        <ele>1521.028687</ele>
        <time>2021-02-03T13:27:49Z</time>
      </trkpt>
      <trkpt lat="44.00395" lon="7.25273">
        <ele>1512.510986</ele>
        <time>2021-02-03T13:28:05Z</time>
      </trkpt>
      <trkpt lat="44.00384" lon="7.25285">
        <ele>1506.922119</ele>
        <time>2021-02-03T13:28:26Z</time>
      </trkpt>
      <trkpt lat="44.00374" lon="7.25302">
        <ele>1503.061646</ele>
        <time>2021-02-03T13:28:42Z</time>
      </trkpt>
      <trkpt lat="44.00363" lon="7.25318">
        <ele>1500.183594</ele>
        <time>2021-02-03T13:28:57Z</time>
      </trkpt>
      <trkpt lat="44.00352" lon="7.2533">
        <ele>1497.947144</ele>
        <time>2021-02-03T13:29:20Z</time>
      </trkpt>
      <trkpt lat="44.00335" lon="7.25337">
        <ele>1493.659546</ele>
        <time>2021-02-03T13:29:35Z</time>
      </trkpt>
      <trkpt lat="44.00321" lon="7.25351">
        <ele>1491.543701</ele>
        <time>2021-02-03T13:29:51Z</time>
      </trkpt>
      <trkpt lat="44.00312" lon="7.25366">
        <ele>1492.126465</ele>
        <time>2021-02-03T13:30:19Z</time>
      </trkpt>
      <trkpt lat="44.00298" lon="7.25372">
        <ele>1491.77417</ele>
        <time>2021-02-03T13:30:36Z</time>
      </trkpt>
      <trkpt lat="44.00288" lon="7.25386">
        <ele>1494.228271</ele>
        <time>2021-02-03T13:30:55Z</time>
      </trkpt>
      <trkpt lat="44.00283" lon="7.25404">
        <ele>1499.136108</ele>
        <time>2021-02-03T13:31:14Z</time>
      </trkpt>
      <trkpt lat="44.00278" lon="7.25423">
        <ele>1502.101074</ele>
        <time>2021-02-03T13:31:29Z</time>
      </trkpt>
      <trkpt lat="44.00271" lon="7.25439">
        <ele>1499.773315</ele>
        <time>2021-02-03T13:31:48Z</time>
      </trkpt>
      <trkpt lat="44.0026" lon="7.2545">
        <ele>1499.782959</ele>
        <time>2021-02-03T13:32:04Z</time>
      </trkpt>
      <trkpt lat="44.00248" lon="7.25466">
        <ele>1499.929321</ele>
        <time>2021-02-03T13:32:20Z</time>
      </trkpt>
      <trkpt lat="44.00234" lon="7.2549">
        <ele>1501.150635</ele>
        <time>2021-02-03T13:32:36Z</time>
      </trkpt>
      <trkpt lat="44.00222" lon="7.25515">
        <ele>1497.903076</ele>
        <time>2021-02-03T13:32:51Z</time>
      </trkpt>
      <trkpt lat="44.00211" lon="7.25535">
        <ele>1492.832764</ele>
        <time>2021-02-03T13:33:07Z</time>
      </trkpt>
      <trkpt lat="44.002" lon="7.25546">
        <ele>1490.808838</ele>
        <time>2021-02-03T13:33:22Z</time>
      </trkpt>
      <trkpt lat="44.00184" lon="7.25553">
        <ele>1491.618164</ele>
        <time>2021-02-03T13:33:37Z</time>
      </trkpt>
      <trkpt lat="44.00173" lon="7.25566">
        <ele>1488.059814</ele>
        <time>2021-02-03T13:33:53Z</time>
      </trkpt>
      <trkpt lat="44.00166" lon="7.25583">
        <ele>1481.080078</ele>
        <time>2021-02-03T13:34:21Z</time>
      </trkpt>
      <trkpt lat="44.00152" lon="7.25583">
        <ele>1478.148926</ele>
        <time>2021-02-03T13:35:56Z</time>
      </trkpt>
      <trkpt lat="44.00132" lon="7.25584">
        <ele>1473.107422</ele>
        <time>2021-02-03T13:36:12Z</time>
      </trkpt>
      <trkpt lat="44.00112" lon="7.25588">
        <ele>1467.19873</ele>
        <time>2021-02-03T13:36:27Z</time>
      </trkpt>
      <trkpt lat="44.00102" lon="7.25601">
        <ele>1459.93042</ele>
        <time>2021-02-03T13:36:48Z</time>
      </trkpt>
      <trkpt lat="44.00088" lon="7.25605">
        <ele>1455.875977</ele>
        <time>2021-02-03T13:37:04Z</time>
      </trkpt>
      <trkpt lat="44.00072" lon="7.25612">
        <ele>1446.479736</ele>
        <time>2021-02-03T13:37:20Z</time>
      </trkpt>
      <trkpt lat="44.00055" lon="7.25619">
        <ele>1436.669067</ele>
        <time>2021-02-03T13:37:35Z</time>
      </trkpt>
      <trkpt lat="44.00037" lon="7.25628">
        <ele>1427.886475</ele>
        <time>2021-02-03T13:37:50Z</time>
      </trkpt>
      <trkpt lat="44.00021" lon="7.25646">
        <ele>1422.372559</ele>
        <time>2021-02-03T13:38:06Z</time>
      </trkpt>
      <trkpt lat="44.00012" lon="7.25669">
        <ele>1422.756348</ele>
        <time>2021-02-03T13:38:22Z</time>
      </trkpt>
      <trkpt lat="44.00007" lon="7.25697">
        <ele>1423.01355</ele>
        <time>2021-02-03T13:38:37Z</time>
      </trkpt>
      <trkpt lat="44" lon="7.25725">
        <ele>1425.818726</ele>
        <time>2021-02-03T13:38:53Z</time>
      </trkpt>
      <trkpt lat="43.99993" lon="7.25741">
        <ele>1426.533081</ele>
        <time>2021-02-03T13:39:08Z</time>
      </trkpt>
      <trkpt lat="43.99978" lon="7.25744">
        <ele>1425.587646</ele>
        <time>2021-02-03T13:39:23Z</time>
      </trkpt>
      <trkpt lat="43.99965" lon="7.2575">
        <ele>1425.866699</ele>
        <time>2021-02-03T13:39:42Z</time>
      </trkpt>
      <trkpt lat="43.99952" lon="7.25757">
        <ele>1422.682373</ele>
        <time>2021-02-03T13:40:32Z</time>
      </trkpt>
      <trkpt lat="43.99939" lon="7.25755">
        <ele>1422.756592</ele>
        <time>2021-02-03T13:42:35Z</time>
      </trkpt>
      <trkpt lat="43.99925" lon="7.25755">
        <ele>1422.104614</ele>
        <time>2021-02-03T13:42:59Z</time>
      </trkpt>
      <trkpt lat="43.99904" lon="7.25763">
        <ele>1415.709717</ele>
        <time>2021-02-03T13:43:14Z</time>
      </trkpt>
      <trkpt lat="43.99885" lon="7.25778">
        <ele>1409.976074</ele>
        <time>2021-02-03T13:43:30Z</time>
      </trkpt>
      <trkpt lat="43.99871" lon="7.25788">
        <ele>1408.25293</ele>
        <time>2021-02-03T13:43:45Z</time>
      </trkpt>
      <trkpt lat="43.99864" lon="7.25811">
        <ele>1410.131836</ele>
        <time>2021-02-03T13:44:00Z</time>
      </trkpt>
      <trkpt lat="43.99861" lon="7.25831">
        <ele>1412.990234</ele>
        <time>2021-02-03T13:44:18Z</time>
      </trkpt>
      <trkpt lat="43.99864" lon="7.25849">
        <ele>1408.158447</ele>
        <time>2021-02-03T13:45:00Z</time>
      </trkpt>
      <trkpt lat="43.9985" lon="7.25852">
        <ele>1411.304077</ele>
        <time>2021-02-03T13:48:59Z</time>
      </trkpt>
      <trkpt lat="43.99841" lon="7.25867">
        <ele>1411.022949</ele>
        <time>2021-02-03T13:49:36Z</time>
      </trkpt>
      <trkpt lat="43.99828" lon="7.25879">
        <ele>1409.265015</ele>
        <time>2021-02-03T13:50:01Z</time>
      </trkpt>
      <trkpt lat="43.99816" lon="7.25889">
        <ele>1403.564941</ele>
        <time>2021-02-03T13:50:20Z</time>
      </trkpt>
      <trkpt lat="43.99814" lon="7.25908">
        <ele>1401.410889</ele>
        <time>2021-02-03T13:51:17Z</time>
      </trkpt>
      <trkpt lat="43.99811" lon="7.25927">
        <ele>1395.805908</ele>
        <time>2021-02-03T13:51:34Z</time>
      </trkpt>
      <trkpt lat="43.99803" lon="7.25942">
        <ele>1389.496826</ele>
        <time>2021-02-03T13:51:56Z</time>
      </trkpt>
      <trkpt lat="43.99816" lon="7.25948">
        <ele>1386.720947</ele>
        <time>2021-02-03T13:52:41Z</time>
      </trkpt>
      <trkpt lat="43.99812" lon="7.25967">
        <ele>1378.689697</ele>
        <time>2021-02-03T13:53:12Z</time>
      </trkpt>
      <trkpt lat="43.99805" lon="7.25985">
        <ele>1373.190186</ele>
        <time>2021-02-03T13:53:35Z</time>
      </trkpt>
      <trkpt lat="43.99791" lon="7.2599">
        <ele>1375.989502</ele>
        <time>2021-02-03T13:53:56Z</time>
      </trkpt>
      <trkpt lat="43.99777" lon="7.25996">
        <ele>1380.288818</ele>
        <time>2021-02-03T13:54:12Z</time>
      </trkpt>
      <trkpt lat="43.99763" lon="7.26002">
        <ele>1384.495361</ele>
        <time>2021-02-03T13:54:27Z</time>
      </trkpt>
      <trkpt lat="43.99752" lon="7.26016">
        <ele>1380.85022</ele>
        <time>2021-02-03T13:54:44Z</time>
      </trkpt>
      <trkpt lat="43.99742" lon="7.26028">
        <ele>1374.40332</ele>
        <time>2021-02-03T13:55:00Z</time>
      </trkpt>
      <trkpt lat="43.99731" lon="7.26039">
        <ele>1369.012695</ele>
        <time>2021-02-03T13:55:16Z</time>
      </trkpt>
      <trkpt lat="43.99721" lon="7.26052">
        <ele>1365.13623</ele>
        <time>2021-02-03T13:55:31Z</time>
      </trkpt>
      <trkpt lat="43.99712" lon="7.26067">
        <ele>1362.304932</ele>
        <time>2021-02-03T13:55:52Z</time>
      </trkpt>
      <trkpt lat="43.99706" lon="7.26085">
        <ele>1358.807617</ele>
        <time>2021-02-03T13:56:07Z</time>
      </trkpt>
      <trkpt lat="43.99696" lon="7.26097">
        <ele>1356.560547</ele>
        <time>2021-02-03T13:56:25Z</time>
      </trkpt>
      <trkpt lat="43.99684" lon="7.26108">
        <ele>1355.52002</ele>
        <time>2021-02-03T13:56:44Z</time>
      </trkpt>
      <trkpt lat="43.99673" lon="7.2612">
        <ele>1354.093872</ele>
        <time>2021-02-03T13:57:00Z</time>
      </trkpt>
      <trkpt lat="43.99661" lon="7.26129">
        <ele>1353.468262</ele>
        <time>2021-02-03T13:57:16Z</time>
      </trkpt>
      <trkpt lat="43.99654" lon="7.26148">
        <ele>1346.093384</ele>
        <time>2021-02-03T13:57:32Z</time>
      </trkpt>
      <trkpt lat="43.9965" lon="7.26167">
        <ele>1338.338013</ele>
        <time>2021-02-03T13:57:52Z</time>
      </trkpt>
      <trkpt lat="43.9965" lon="7.26186">
        <ele>1328.893677</ele>
        <time>2021-02-03T13:58:07Z</time>
      </trkpt>
      <trkpt lat="43.99639" lon="7.26198">
        <ele>1325.525146</ele>
        <time>2021-02-03T13:58:33Z</time>
      </trkpt>
      <trkpt lat="43.99626" lon="7.26196">
        <ele>1330.763184</ele>
        <time>2021-02-03T13:58:55Z</time>
      </trkpt>
      <trkpt lat="43.99612" lon="7.26197">
        <ele>1334.128662</ele>
        <time>2021-02-03T13:59:20Z</time>
      </trkpt>
      <trkpt lat="43.99598" lon="7.26197">
        <ele>1337.994629</ele>
        <time>2021-02-03T13:59:41Z</time>
      </trkpt>
      <trkpt lat="43.99585" lon="7.26203">
        <ele>1336.67395</ele>
        <time>2021-02-03T14:00:10Z</time>
      </trkpt>
      <trkpt lat="43.99571" lon="7.26207">
        <ele>1335.974121</ele>
        <time>2021-02-03T14:00:30Z</time>
      </trkpt>
      <trkpt lat="43.99559" lon="7.26214">
        <ele>1332.294434</ele>
        <time>2021-02-03T14:00:53Z</time>
      </trkpt>
      <trkpt lat="43.99547" lon="7.26223">
        <ele>1327.117188</ele>
        <time>2021-02-03T14:01:15Z</time>
      </trkpt>
      <trkpt lat="43.99534" lon="7.2623">
        <ele>1324.326416</ele>
        <time>2021-02-03T14:01:33Z</time>
      </trkpt>
      <trkpt lat="43.99523" lon="7.2624">
        <ele>1319.453247</ele>
        <time>2021-02-03T14:02:51Z</time>
      </trkpt>
      <trkpt lat="43.9951" lon="7.2625">
        <ele>1315.203491</ele>
        <time>2021-02-03T14:03:09Z</time>
      </trkpt>
      <trkpt lat="43.99497" lon="7.26255">
        <ele>1312.922119</ele>
        <time>2021-02-03T14:03:25Z</time>
      </trkpt>
      <trkpt lat="43.99483" lon="7.26266">
        <ele>1301.35083</ele>
        <time>2021-02-03T14:03:41Z</time>
      </trkpt>
      <trkpt lat="43.99471" lon="7.26278">
        <ele>1292.039795</ele>
        <time>2021-02-03T14:03:57Z</time>
      </trkpt>
      <trkpt lat="43.99463" lon="7.26293">
        <ele>1284.506104</ele>
        <time>2021-02-03T14:04:12Z</time>
      </trkpt>
      <trkpt lat="43.99451" lon="7.26302">
        <ele>1279.247925</ele>
        <time>2021-02-03T14:04:31Z</time>
      </trkpt>
      <trkpt lat="43.99442" lon="7.26318">
        <ele>1274.813232</ele>
        <time>2021-02-03T14:04:46Z</time>
      </trkpt>
      <trkpt lat="43.99435" lon="7.26337">
        <ele>1271.28125</ele>
        <time>2021-02-03T14:05:01Z</time>
      </trkpt>
      <trkpt lat="43.99426" lon="7.2636">
        <ele>1268.743652</ele>
        <time>2021-02-03T14:05:17Z</time>
      </trkpt>
      <trkpt lat="43.99414" lon="7.26385">
        <ele>1267.038208</ele>
        <time>2021-02-03T14:05:32Z</time>
      </trkpt>
      <trkpt lat="43.994" lon="7.26402">
        <ele>1259.217529</ele>
        <time>2021-02-03T14:05:48Z</time>
      </trkpt>
      <trkpt lat="43.99385" lon="7.26417">
        <ele>1253.848022</ele>
        <time>2021-02-03T14:06:04Z</time>
      </trkpt>
      <trkpt lat="43.99399" lon="7.26418">
        <ele>1258.929932</ele>
        <time>2021-02-03T14:06:22Z</time>
      </trkpt>
      <trkpt lat="43.99421" lon="7.26409">
        <ele>1264.934814</ele>
        <time>2021-02-03T14:06:38Z</time>
      </trkpt>
      <trkpt lat="43.99411" lon="7.26423">
        <ele>1262.292358</ele>
        <time>2021-02-03T14:07:07Z</time>
      </trkpt>
      <trkpt lat="43.99394" lon="7.2644">
        <ele>1254.296143</ele>
        <time>2021-02-03T14:07:23Z</time>
      </trkpt>
      <trkpt lat="43.99388" lon="7.26457">
        <ele>1251.487671</ele>
        <time>2021-02-03T14:07:39Z</time>
      </trkpt>
      <trkpt lat="43.99402" lon="7.26452">
        <ele>1253.857056</ele>
        <time>2021-02-03T14:07:56Z</time>
      </trkpt>
      <trkpt lat="43.99417" lon="7.26447">
        <ele>1256.891235</ele>
        <time>2021-02-03T14:08:11Z</time>
      </trkpt>
      <trkpt lat="43.99436" lon="7.26434">
        <ele>1251.20105</ele>
        <time>2021-02-03T14:08:27Z</time>
      </trkpt>
      <trkpt lat="43.9943" lon="7.26452">
        <ele>1248.598145</ele>
        <time>2021-02-03T14:09:10Z</time>
      </trkpt>
      <trkpt lat="43.99416" lon="7.26463">
        <ele>1252.640991</ele>
        <time>2021-02-03T14:09:25Z</time>
      </trkpt>
      <trkpt lat="43.99403" lon="7.26474">
        <ele>1249.80957</ele>
        <time>2021-02-03T14:09:41Z</time>
      </trkpt>
      <trkpt lat="43.99395" lon="7.26492">
        <ele>1247.637573</ele>
        <time>2021-02-03T14:09:56Z</time>
      </trkpt>
      <trkpt lat="43.99387" lon="7.2651">
        <ele>1244.401733</ele>
        <time>2021-02-03T14:10:12Z</time>
      </trkpt>
      <trkpt lat="43.99381" lon="7.26527">
        <ele>1240.219238</ele>
        <time>2021-02-03T14:10:32Z</time>
      </trkpt>
      <trkpt lat="43.99381" lon="7.26551">
        <ele>1232.810181</ele>
        <time>2021-02-03T14:10:48Z</time>
      </trkpt>
      <trkpt lat="43.9938" lon="7.2657">
        <ele>1226.665894</ele>
        <time>2021-02-03T14:11:06Z</time>
      </trkpt>
      <trkpt lat="43.99378" lon="7.26589">
        <ele>1222.044922</ele>
        <time>2021-02-03T14:11:22Z</time>
      </trkpt>
      <trkpt lat="43.99382" lon="7.26607">
        <ele>1214.344238</ele>
        <time>2021-02-03T14:11:37Z</time>
      </trkpt>
      <trkpt lat="43.99371" lon="7.26619">
        <ele>1215.5354</ele>
        <time>2021-02-03T14:11:58Z</time>
      </trkpt>
      <trkpt lat="43.99356" lon="7.2662">
        <ele>1221.623535</ele>
        <time>2021-02-03T14:12:14Z</time>
      </trkpt>
      <trkpt lat="43.9934" lon="7.2662">
        <ele>1228.249512</ele>
        <time>2021-02-03T14:12:29Z</time>
      </trkpt>
      <trkpt lat="43.99324" lon="7.26625">
        <ele>1226.496216</ele>
        <time>2021-02-03T14:12:45Z</time>
      </trkpt>
      <trkpt lat="43.99309" lon="7.26635">
        <ele>1218.859741</ele>
        <time>2021-02-03T14:13:00Z</time>
      </trkpt>
      <trkpt lat="43.99296" lon="7.26642">
        <ele>1214.358398</ele>
        <time>2021-02-03T14:13:16Z</time>
      </trkpt>
      <trkpt lat="43.99282" lon="7.26654">
        <ele>1209.883789</ele>
        <time>2021-02-03T14:13:31Z</time>
      </trkpt>
      <trkpt lat="43.99272" lon="7.26667">
        <ele>1207.084839</ele>
        <time>2021-02-03T14:13:46Z</time>
      </trkpt>
      <trkpt lat="43.99264" lon="7.26683">
        <ele>1201.772583</ele>
        <time>2021-02-03T14:14:02Z</time>
      </trkpt>
      <trkpt lat="43.99252" lon="7.26693">
        <ele>1198.624268</ele>
        <time>2021-02-03T14:14:22Z</time>
      </trkpt>
      <trkpt lat="43.9924" lon="7.26703">
        <ele>1192.565796</ele>
        <time>2021-02-03T14:14:45Z</time>
      </trkpt>
      <trkpt lat="43.99233" lon="7.26722">
        <ele>1185.387207</ele>
        <time>2021-02-03T14:15:01Z</time>
      </trkpt>
      <trkpt lat="43.99222" lon="7.2674">
        <ele>1177.394531</ele>
        <time>2021-02-03T14:15:16Z</time>
      </trkpt>
      <trkpt lat="43.99212" lon="7.2676">
        <ele>1169.641602</ele>
        <time>2021-02-03T14:15:31Z</time>
      </trkpt>
      <trkpt lat="43.99206" lon="7.26777">
        <ele>1164.643066</ele>
        <time>2021-02-03T14:17:40Z</time>
      </trkpt>
      <trkpt lat="43.99197" lon="7.26792">
        <ele>1161.248779</ele>
        <time>2021-02-03T14:17:56Z</time>
      </trkpt>
      <trkpt lat="43.99182" lon="7.26807">
        <ele>1159.982422</ele>
        <time>2021-02-03T14:18:11Z</time>
      </trkpt>
      <trkpt lat="43.99167" lon="7.26815">
        <ele>1161.323853</ele>
        <time>2021-02-03T14:18:27Z</time>
      </trkpt>
      <trkpt lat="43.9915" lon="7.26823">
        <ele>1161.67688</ele>
        <time>2021-02-03T14:18:43Z</time>
      </trkpt>
      <trkpt lat="43.99135" lon="7.26822">
        <ele>1161.676758</ele>
        <time>2021-02-03T14:18:58Z</time>
      </trkpt>
      <trkpt lat="43.99118" lon="7.26828">
        <ele>1163.12439</ele>
        <time>2021-02-03T14:19:13Z</time>
      </trkpt>
      <trkpt lat="43.99096" lon="7.26835">
        <ele>1165.911377</ele>
        <time>2021-02-03T14:19:29Z</time>
      </trkpt>
      <trkpt lat="43.9908" lon="7.26829">
        <ele>1164.608398</ele>
        <time>2021-02-03T14:19:44Z</time>
      </trkpt>
      <trkpt lat="43.99063" lon="7.26823">
        <ele>1163.598511</ele>
        <time>2021-02-03T14:20:00Z</time>
      </trkpt>
      <trkpt lat="43.99048" lon="7.2682">
        <ele>1163.495239</ele>
        <time>2021-02-03T14:20:16Z</time>
      </trkpt>
      <trkpt lat="43.99029" lon="7.26822">
        <ele>1165.774536</ele>
        <time>2021-02-03T14:20:32Z</time>
      </trkpt>
      <trkpt lat="43.99022" lon="7.26847">
        <ele>1173.260742</ele>
        <time>2021-02-03T14:20:47Z</time>
      </trkpt>
      <trkpt lat="43.99024" lon="7.26874">
        <ele>1179.173828</ele>
        <time>2021-02-03T14:21:02Z</time>
      </trkpt>
      <trkpt lat="43.99015" lon="7.26893">
        <ele>1182.589111</ele>
        <time>2021-02-03T14:21:18Z</time>
      </trkpt>
      <trkpt lat="43.98996" lon="7.26903">
        <ele>1181.746948</ele>
        <time>2021-02-03T14:21:34Z</time>
      </trkpt>
      <trkpt lat="43.98976" lon="7.26915">
        <ele>1177.690796</ele>
        <time>2021-02-03T14:21:50Z</time>
      </trkpt>
      <trkpt lat="43.9896" lon="7.26926">
        <ele>1174.95459</ele>
        <time>2021-02-03T14:22:05Z</time>
      </trkpt>
      <trkpt lat="43.98951" lon="7.2695">
        <ele>1176.656982</ele>
        <time>2021-02-03T14:22:21Z</time>
      </trkpt>
      <trkpt lat="43.98954" lon="7.26975">
        <ele>1181.614258</ele>
        <time>2021-02-03T14:22:36Z</time>
      </trkpt>
      <trkpt lat="43.98956" lon="7.26996">
        <ele>1185.726562</ele>
        <time>2021-02-03T14:22:52Z</time>
      </trkpt>
      <trkpt lat="43.98954" lon="7.2702">
        <ele>1186.919189</ele>
        <time>2021-02-03T14:23:08Z</time>
      </trkpt>
      <trkpt lat="43.98942" lon="7.27034">
        <ele>1184.978271</ele>
        <time>2021-02-03T14:23:23Z</time>
      </trkpt>
      <trkpt lat="43.98926" lon="7.27049">
        <ele>1182.46582</ele>
        <time>2021-02-03T14:23:39Z</time>
      </trkpt>
      <trkpt lat="43.98912" lon="7.27062">
        <ele>1182.140259</ele>
        <time>2021-02-03T14:23:54Z</time>
      </trkpt>
      <trkpt lat="43.98917" lon="7.2708">
        <ele>1183.701904</ele>
        <time>2021-02-03T14:29:15Z</time>
      </trkpt>
      <trkpt lat="43.98922" lon="7.27099">
        <ele>1183.396851</ele>
        <time>2021-02-03T14:29:31Z</time>
      </trkpt>
      <trkpt lat="43.98908" lon="7.27103">
        <ele>1182.127686</ele>
        <time>2021-02-03T14:30:04Z</time>
      </trkpt>
      <trkpt lat="43.98889" lon="7.27105">
        <ele>1182.079712</ele>
        <time>2021-02-03T14:30:20Z</time>
      </trkpt>
      <trkpt lat="43.98877" lon="7.27112">
        <ele>1180.50293</ele>
        <time>2021-02-03T14:30:35Z</time>
      </trkpt>
      <trkpt lat="43.98862" lon="7.27107">
        <ele>1181.821533</ele>
        <time>2021-02-03T14:30:50Z</time>
      </trkpt>
      <trkpt lat="43.98848" lon="7.27103">
        <ele>1183.58374</ele>
        <time>2021-02-03T14:31:06Z</time>
      </trkpt>
      <trkpt lat="43.98833" lon="7.271">
        <ele>1185.177246</ele>
        <time>2021-02-03T14:31:23Z</time>
      </trkpt>
      <trkpt lat="43.98819" lon="7.27102">
        <ele>1181.62793</ele>
        <time>2021-02-03T14:31:39Z</time>
      </trkpt>
      <trkpt lat="43.98805" lon="7.271">
        <ele>1180.262573</ele>
        <time>2021-02-03T14:31:55Z</time>
      </trkpt>
      <trkpt lat="43.98789" lon="7.27096">
        <ele>1179.581909</ele>
        <time>2021-02-03T14:32:11Z</time>
      </trkpt>
      <trkpt lat="43.98775" lon="7.27092">
        <ele>1179.286133</ele>
        <time>2021-02-03T14:32:26Z</time>
      </trkpt>
      <trkpt lat="43.98761" lon="7.27093">
        <ele>1176.602661</ele>
        <time>2021-02-03T14:32:43Z</time>
      </trkpt>
      <trkpt lat="43.9875" lon="7.27105">
        <ele>1167.795776</ele>
        <time>2021-02-03T14:32:59Z</time>
      </trkpt>
      <trkpt lat="43.98741" lon="7.27119">
        <ele>1158.594604</ele>
        <time>2021-02-03T14:33:31Z</time>
      </trkpt>
      <trkpt lat="43.98726" lon="7.27112">
        <ele>1160.322021</ele>
        <time>2021-02-03T14:33:47Z</time>
      </trkpt>
      <trkpt lat="43.98712" lon="7.27117">
        <ele>1155.065918</ele>
        <time>2021-02-03T14:34:03Z</time>
      </trkpt>
      <trkpt lat="43.98701" lon="7.27129">
        <ele>1147.028809</ele>
        <time>2021-02-03T14:34:19Z</time>
      </trkpt>
      <trkpt lat="43.9869" lon="7.2714">
        <ele>1139.379028</ele>
        <time>2021-02-03T14:35:02Z</time>
      </trkpt>
      <trkpt lat="43.98676" lon="7.2713">
        <ele>1142.385376</ele>
        <time>2021-02-03T14:35:17Z</time>
      </trkpt>
      <trkpt lat="43.98663" lon="7.27115">
        <ele>1148.539917</ele>
        <time>2021-02-03T14:35:33Z</time>
      </trkpt>
      <trkpt lat="43.98646" lon="7.27114">
        <ele>1149.693359</ele>
        <time>2021-02-03T14:35:49Z</time>
      </trkpt>
      <trkpt lat="43.98633" lon="7.27115">
        <ele>1149.863525</ele>
        <time>2021-02-03T14:36:04Z</time>
      </trkpt>
      <trkpt lat="43.98614" lon="7.27127">
        <ele>1143.09082</ele>
        <time>2021-02-03T14:36:20Z</time>
      </trkpt>
      <trkpt lat="43.98597" lon="7.27135">
        <ele>1138.770874</ele>
        <time>2021-02-03T14:36:35Z</time>
      </trkpt>
      <trkpt lat="43.98581" lon="7.2714">
        <ele>1135.616943</ele>
        <time>2021-02-03T14:36:50Z</time>
      </trkpt>
      <trkpt lat="43.98562" lon="7.27129">
        <ele>1145.680176</ele>
        <time>2021-02-03T14:37:06Z</time>
      </trkpt>
      <trkpt lat="43.98547" lon="7.27148">
        <ele>1137.672363</ele>
        <time>2021-02-03T14:37:22Z</time>
      </trkpt>
      <trkpt lat="43.98537" lon="7.27168">
        <ele>1130.422119</ele>
        <time>2021-02-03T14:37:38Z</time>
      </trkpt>
      <trkpt lat="43.98525" lon="7.27177">
        <ele>1129.680908</ele>
        <time>2021-02-03T14:38:08Z</time>
      </trkpt>
      <trkpt lat="43.98507" lon="7.27178">
        <ele>1134.475586</ele>
        <time>2021-02-03T14:38:23Z</time>
      </trkpt>
      <trkpt lat="43.98496" lon="7.27198">
        <ele>1126.857544</ele>
        <time>2021-02-03T14:38:38Z</time>
      </trkpt>
      <trkpt lat="43.98488" lon="7.27222">
        <ele>1114.688232</ele>
        <time>2021-02-03T14:38:54Z</time>
      </trkpt>
      <trkpt lat="43.98485" lon="7.27246">
        <ele>1105.026855</ele>
        <time>2021-02-03T14:39:09Z</time>
      </trkpt>
      <trkpt lat="43.98472" lon="7.27268">
        <ele>1097.58667</ele>
        <time>2021-02-03T14:39:25Z</time>
      </trkpt>
      <trkpt lat="43.98458" lon="7.27285">
        <ele>1093.391357</ele>
        <time>2021-02-03T14:39:40Z</time>
      </trkpt>
      <trkpt lat="43.98454" lon="7.27304">
        <ele>1091.285645</ele>
        <time>2021-02-03T14:41:02Z</time>
      </trkpt>
      <trkpt lat="43.9845" lon="7.27322">
        <ele>1089.666382</ele>
        <time>2021-02-03T14:42:24Z</time>
      </trkpt>
      <trkpt lat="43.98445" lon="7.27342">
        <ele>1089.546753</ele>
        <time>2021-02-03T14:42:40Z</time>
      </trkpt>
      <trkpt lat="43.98441" lon="7.27365">
        <ele>1092.005371</ele>
        <time>2021-02-03T14:42:55Z</time>
      </trkpt>
      <trkpt lat="43.98438" lon="7.27391">
        <ele>1094.955322</ele>
        <time>2021-02-03T14:43:11Z</time>
      </trkpt>
      <trkpt lat="43.98435" lon="7.27411">
        <ele>1098.493896</ele>
        <time>2021-02-03T14:43:26Z</time>
      </trkpt>
      <trkpt lat="43.98434" lon="7.27431">
        <ele>1101.978638</ele>
        <time>2021-02-03T14:43:41Z</time>
      </trkpt>
      <trkpt lat="43.98433" lon="7.27451">
        <ele>1105.74231</ele>
        <time>2021-02-03T14:43:57Z</time>
      </trkpt>
      <trkpt lat="43.98439" lon="7.27471">
        <ele>1105.637817</ele>
        <time>2021-02-03T14:44:13Z</time>
      </trkpt>
      <trkpt lat="43.98435" lon="7.27491">
        <ele>1111.389893</ele>
        <time>2021-02-03T14:44:28Z</time>
      </trkpt>
      <trkpt lat="43.98436" lon="7.27513">
        <ele>1113.031738</ele>
        <time>2021-02-03T14:44:44Z</time>
      </trkpt>
      <trkpt lat="43.98438" lon="7.27533">
        <ele>1113.020752</ele>
        <time>2021-02-03T14:44:59Z</time>
      </trkpt>
      <trkpt lat="43.98432" lon="7.27554">
        <ele>1118.189697</ele>
        <time>2021-02-03T14:45:15Z</time>
      </trkpt>
      <trkpt lat="43.98419" lon="7.27573">
        <ele>1128.946533</ele>
        <time>2021-02-03T14:45:31Z</time>
      </trkpt>
      <trkpt lat="43.98408" lon="7.27588">
        <ele>1126.869995</ele>
        <time>2021-02-03T14:45:46Z</time>
      </trkpt>
      <trkpt lat="43.98394" lon="7.27604">
        <ele>1121.437012</ele>
        <time>2021-02-03T14:46:02Z</time>
      </trkpt>
      <trkpt lat="43.98383" lon="7.27622">
        <ele>1119.567871</ele>
        <time>2021-02-03T14:46:18Z</time>
      </trkpt>
      <trkpt lat="43.98375" lon="7.27642">
        <ele>1120.679443</ele>
        <time>2021-02-03T14:46:34Z</time>
      </trkpt>
      <trkpt lat="43.98362" lon="7.27663">
        <ele>1124.714355</ele>
        <time>2021-02-03T14:46:50Z</time>
      </trkpt>
      <trkpt lat="43.98349" lon="7.27679">
        <ele>1126.641357</ele>
        <time>2021-02-03T14:47:05Z</time>
      </trkpt>
      <trkpt lat="43.98337" lon="7.27696">
        <ele>1128.71875</ele>
        <time>2021-02-03T14:47:21Z</time>
      </trkpt>
      <trkpt lat="43.98323" lon="7.27703">
        <ele>1128.352539</ele>
        <time>2021-02-03T14:47:36Z</time>
      </trkpt>
      <trkpt lat="43.98309" lon="7.27708">
        <ele>1127.111694</ele>
        <time>2021-02-03T14:47:51Z</time>
      </trkpt>
      <trkpt lat="43.98291" lon="7.27706">
        <ele>1125.019531</ele>
        <time>2021-02-03T14:48:07Z</time>
      </trkpt>
      <trkpt lat="43.98272" lon="7.27705">
        <ele>1122.830811</ele>
        <time>2021-02-03T14:48:23Z</time>
      </trkpt>
      <trkpt lat="43.98255" lon="7.277">
        <ele>1119.413574</ele>
        <time>2021-02-03T14:48:38Z</time>
      </trkpt>
      <trkpt lat="43.98239" lon="7.27698">
        <ele>1120.118896</ele>
        <time>2021-02-03T14:48:54Z</time>
      </trkpt>
      <trkpt lat="43.98221" lon="7.27691">
        <ele>1121.675537</ele>
        <time>2021-02-03T14:49:10Z</time>
      </trkpt>
      <trkpt lat="43.98208" lon="7.27683">
        <ele>1122.760498</ele>
        <time>2021-02-03T14:50:43Z</time>
      </trkpt>
      <trkpt lat="43.98189" lon="7.27677">
        <ele>1125.459106</ele>
        <time>2021-02-03T14:50:59Z</time>
      </trkpt>
      <trkpt lat="43.98175" lon="7.27664">
        <ele>1125.687256</ele>
        <time>2021-02-03T14:51:15Z</time>
      </trkpt>
      <trkpt lat="43.98162" lon="7.27655">
        <ele>1125.773804</ele>
        <time>2021-02-03T14:51:30Z</time>
      </trkpt>
      <trkpt lat="43.98146" lon="7.27641">
        <ele>1126.228638</ele>
        <time>2021-02-03T14:51:45Z</time>
      </trkpt>
      <trkpt lat="43.98132" lon="7.27626">
        <ele>1126.095215</ele>
        <time>2021-02-03T14:52:01Z</time>
      </trkpt>
      <trkpt lat="43.98118" lon="7.27614">
        <ele>1127.549316</ele>
        <time>2021-02-03T14:52:16Z</time>
      </trkpt>
      <trkpt lat="43.98107" lon="7.27596">
        <ele>1126.348389</ele>
        <time>2021-02-03T14:52:31Z</time>
      </trkpt>
      <trkpt lat="43.98086" lon="7.27591">
        <ele>1134.185059</ele>
        <time>2021-02-03T14:52:47Z</time>
      </trkpt>
      <trkpt lat="43.9807" lon="7.27582">
        <ele>1136.617432</ele>
        <time>2021-02-03T14:53:03Z</time>
      </trkpt>
      <trkpt lat="43.98055" lon="7.27569">
        <ele>1134.427612</ele>
        <time>2021-02-03T14:53:19Z</time>
      </trkpt>
      <trkpt lat="43.98034" lon="7.27558">
        <ele>1136.335693</ele>
        <time>2021-02-03T14:53:35Z</time>
      </trkpt>
      <trkpt lat="43.9802" lon="7.27556">
        <ele>1139.554443</ele>
        <time>2021-02-03T14:53:50Z</time>
      </trkpt>
      <trkpt lat="43.98006" lon="7.27537">
        <ele>1135.440674</ele>
        <time>2021-02-03T14:54:06Z</time>
      </trkpt>
      <trkpt lat="43.97994" lon="7.27524">
        <ele>1134.02356</ele>
        <time>2021-02-03T14:54:21Z</time>
      </trkpt>
      <trkpt lat="43.97985" lon="7.27504">
        <ele>1128.696655</ele>
        <time>2021-02-03T14:54:36Z</time>
      </trkpt>
      <trkpt lat="43.97971" lon="7.27487">
        <ele>1128.407349</ele>
        <time>2021-02-03T14:54:52Z</time>
      </trkpt>
      <trkpt lat="43.97961" lon="7.27469">
        <ele>1126.316162</ele>
        <time>2021-02-03T14:55:07Z</time>
      </trkpt>
      <trkpt lat="43.97946" lon="7.27448">
        <ele>1124.481201</ele>
        <time>2021-02-03T14:55:23Z</time>
      </trkpt>
      <trkpt lat="43.97932" lon="7.27438">
        <ele>1125.921753</ele>
        <time>2021-02-03T14:55:39Z</time>
      </trkpt>
      <trkpt lat="43.97915" lon="7.27429">
        <ele>1127.757568</ele>
        <time>2021-02-03T14:55:54Z</time>
      </trkpt>
      <trkpt lat="43.97899" lon="7.27422">
        <ele>1125.215454</ele>
        <time>2021-02-03T14:56:10Z</time>
      </trkpt>
      <trkpt lat="43.97886" lon="7.27417">
        <ele>1123.223877</ele>
        <time>2021-02-03T14:56:26Z</time>
      </trkpt>
      <trkpt lat="43.97873" lon="7.27409">
        <ele>1120.489746</ele>
        <time>2021-02-03T14:56:43Z</time>
      </trkpt>
      <trkpt lat="43.97857" lon="7.27404">
        <ele>1118.760498</ele>
        <time>2021-02-03T14:56:59Z</time>
      </trkpt>
      <trkpt lat="43.97838" lon="7.27407">
        <ele>1119.776001</ele>
        <time>2021-02-03T14:57:15Z</time>
      </trkpt>
      <trkpt lat="43.97823" lon="7.27406">
        <ele>1117.164185</ele>
        <time>2021-02-03T14:57:30Z</time>
      </trkpt>
      <trkpt lat="43.97806" lon="7.27409">
        <ele>1114.807739</ele>
        <time>2021-02-03T14:57:45Z</time>
      </trkpt>
      <trkpt lat="43.97792" lon="7.27413">
        <ele>1113.447998</ele>
        <time>2021-02-03T14:58:05Z</time>
      </trkpt>
      <trkpt lat="43.97776" lon="7.27424">
        <ele>1113.469482</ele>
        <time>2021-02-03T14:58:21Z</time>
      </trkpt>
      <trkpt lat="43.97765" lon="7.2744">
        <ele>1114.700562</ele>
        <time>2021-02-03T14:58:36Z</time>
      </trkpt>
      <trkpt lat="43.97753" lon="7.27453">
        <ele>1114.709595</ele>
        <time>2021-02-03T14:58:52Z</time>
      </trkpt>
      <trkpt lat="43.97739" lon="7.27466">
        <ele>1112.526123</ele>
        <time>2021-02-03T14:59:07Z</time>
      </trkpt>
      <trkpt lat="43.97728" lon="7.27478">
        <ele>1110.862671</ele>
        <time>2021-02-03T14:59:23Z</time>
      </trkpt>
      <trkpt lat="43.97712" lon="7.27489">
        <ele>1107.535156</ele>
        <time>2021-02-03T14:59:39Z</time>
      </trkpt>
      <trkpt lat="43.97701" lon="7.27503">
        <ele>1106.807495</ele>
        <time>2021-02-03T14:59:54Z</time>
      </trkpt>
      <trkpt lat="43.97685" lon="7.27515">
        <ele>1105.245239</ele>
        <time>2021-02-03T15:00:09Z</time>
      </trkpt>
      <trkpt lat="43.97671" lon="7.2752">
        <ele>1101.88501</ele>
        <time>2021-02-03T15:00:24Z</time>
      </trkpt>
      <trkpt lat="43.97657" lon="7.27523">
        <ele>1098.325439</ele>
        <time>2021-02-03T15:00:40Z</time>
      </trkpt>
      <trkpt lat="43.9764" lon="7.27523">
        <ele>1093.23999</ele>
        <time>2021-02-03T15:00:56Z</time>
      </trkpt>
      <trkpt lat="43.97622" lon="7.27524">
        <ele>1088.591553</ele>
        <time>2021-02-03T15:01:11Z</time>
      </trkpt>
      <trkpt lat="43.97603" lon="7.27521">
        <ele>1081.918213</ele>
        <time>2021-02-03T15:01:27Z</time>
      </trkpt>
      <trkpt lat="43.97587" lon="7.27524">
        <ele>1078.660156</ele>
        <time>2021-02-03T15:01:42Z</time>
      </trkpt>
      <trkpt lat="43.97567" lon="7.27521">
        <ele>1073.950073</ele>
        <time>2021-02-03T15:01:58Z</time>
      </trkpt>
      <trkpt lat="43.9755" lon="7.27518">
        <ele>1070.240723</ele>
        <time>2021-02-03T15:02:13Z</time>
      </trkpt>
      <trkpt lat="43.97534" lon="7.27516">
        <ele>1067.0896</ele>
        <time>2021-02-03T15:02:29Z</time>
      </trkpt>
      <trkpt lat="43.97522" lon="7.27533">
        <ele>1072.161987</ele>
        <time>2021-02-03T15:02:45Z</time>
      </trkpt>
      <trkpt lat="43.97507" lon="7.27547">
        <ele>1075.009644</ele>
        <time>2021-02-03T15:03:01Z</time>
      </trkpt>
      <trkpt lat="43.97488" lon="7.27563">
        <ele>1073.401367</ele>
        <time>2021-02-03T15:03:17Z</time>
      </trkpt>
      <trkpt lat="43.97479" lon="7.27583">
        <ele>1075.586182</ele>
        <time>2021-02-03T15:03:33Z</time>
      </trkpt>
      <trkpt lat="43.97469" lon="7.27605">
        <ele>1077.577881</ele>
        <time>2021-02-03T15:03:49Z</time>
      </trkpt>
      <trkpt lat="43.97457" lon="7.27623">
        <ele>1077.027588</ele>
        <time>2021-02-03T15:04:05Z</time>
      </trkpt>
      <trkpt lat="43.97442" lon="7.27634">
        <ele>1072.010376</ele>
        <time>2021-02-03T15:04:21Z</time>
      </trkpt>
      <trkpt lat="43.97427" lon="7.27649">
        <ele>1068.508057</ele>
        <time>2021-02-03T15:04:36Z</time>
      </trkpt>
      <trkpt lat="43.97414" lon="7.27667">
        <ele>1067.984741</ele>
        <time>2021-02-03T15:04:52Z</time>
      </trkpt>
      <trkpt lat="43.97402" lon="7.27684">
        <ele>1072.270386</ele>
        <time>2021-02-03T15:05:07Z</time>
      </trkpt>
      <trkpt lat="43.97388" lon="7.27691">
        <ele>1073.815796</ele>
        <time>2021-02-03T15:05:23Z</time>
      </trkpt>
      <trkpt lat="43.97374" lon="7.27687">
        <ele>1072.047729</ele>
        <time>2021-02-03T15:05:40Z</time>
      </trkpt>
      <trkpt lat="43.97364" lon="7.27674">
        <ele>1067.335938</ele>
        <time>2021-02-03T15:05:56Z</time>
      </trkpt>
      <trkpt lat="43.97345" lon="7.27669">
        <ele>1064.4375</ele>
        <time>2021-02-03T15:06:11Z</time>
      </trkpt>
      <trkpt lat="43.97324" lon="7.27662">
        <ele>1063.410156</ele>
        <time>2021-02-03T15:06:27Z</time>
      </trkpt>
      <trkpt lat="43.97313" lon="7.27646">
        <ele>1059.64978</ele>
        <time>2021-02-03T15:06:42Z</time>
      </trkpt>
      <trkpt lat="43.97303" lon="7.27631">
        <ele>1056.090088</ele>
        <time>2021-02-03T15:07:01Z</time>
      </trkpt>
      <trkpt lat="43.97289" lon="7.27615">
        <ele>1051.829102</ele>
        <time>2021-02-03T15:07:17Z</time>
      </trkpt>
      <trkpt lat="43.97271" lon="7.27621">
        <ele>1057.389893</ele>
        <time>2021-02-03T15:07:33Z</time>
      </trkpt>
      <trkpt lat="43.97255" lon="7.2763">
        <ele>1063.632202</ele>
        <time>2021-02-03T15:07:49Z</time>
      </trkpt>
      <trkpt lat="43.97236" lon="7.27625">
        <ele>1063.108643</ele>
        <time>2021-02-03T15:08:04Z</time>
      </trkpt>
      <trkpt lat="43.97219" lon="7.27635">
        <ele>1068.18335</ele>
        <time>2021-02-03T15:08:20Z</time>
      </trkpt>
      <trkpt lat="43.97199" lon="7.27634">
        <ele>1068.647217</ele>
        <time>2021-02-03T15:08:35Z</time>
      </trkpt>
      <trkpt lat="43.97183" lon="7.27624">
        <ele>1065.793701</ele>
        <time>2021-02-03T15:08:50Z</time>
      </trkpt>
      <trkpt lat="43.97169" lon="7.27613">
        <ele>1062.390503</ele>
        <time>2021-02-03T15:09:06Z</time>
      </trkpt>
      <trkpt lat="43.97162" lon="7.27592">
        <ele>1056.170166</ele>
        <time>2021-02-03T15:09:21Z</time>
      </trkpt>
      <trkpt lat="43.97154" lon="7.27575">
        <ele>1052.440063</ele>
        <time>2021-02-03T15:10:27Z</time>
      </trkpt>
      <trkpt lat="43.9714" lon="7.27563">
        <ele>1052.29248</ele>
        <time>2021-02-03T15:10:42Z</time>
      </trkpt>
      <trkpt lat="43.97131" lon="7.27548">
        <ele>1050.614624</ele>
        <time>2021-02-03T15:10:58Z</time>
      </trkpt>
      <trkpt lat="43.97119" lon="7.27529">
        <ele>1048.596069</ele>
        <time>2021-02-03T15:11:14Z</time>
      </trkpt>
      <trkpt lat="43.97104" lon="7.27512">
        <ele>1049.022461</ele>
        <time>2021-02-03T15:11:29Z</time>
      </trkpt>
      <trkpt lat="43.97091" lon="7.27499">
        <ele>1050.05542</ele>
        <time>2021-02-03T15:11:45Z</time>
      </trkpt>
      <trkpt lat="43.97077" lon="7.2748">
        <ele>1046.258545</ele>
        <time>2021-02-03T15:12:00Z</time>
      </trkpt>
      <trkpt lat="43.9707" lon="7.27458">
        <ele>1039.840454</ele>
        <time>2021-02-03T15:12:16Z</time>
      </trkpt>
      <trkpt lat="43.97061" lon="7.2744">
        <ele>1034.82959</ele>
        <time>2021-02-03T15:12:32Z</time>
      </trkpt>
      <trkpt lat="43.97051" lon="7.2742">
        <ele>1029.975098</ele>
        <time>2021-02-03T15:12:48Z</time>
      </trkpt>
      <trkpt lat="43.97048" lon="7.274">
        <ele>1024.865845</ele>
        <time>2021-02-03T15:13:06Z</time>
      </trkpt>
      <trkpt lat="43.97046" lon="7.27374">
        <ele>1018.446899</ele>
        <time>2021-02-03T15:13:22Z</time>
      </trkpt>
      <trkpt lat="43.97042" lon="7.27355">
        <ele>1014.29071</ele>
        <time>2021-02-03T15:13:44Z</time>
      </trkpt>
      <trkpt lat="43.97032" lon="7.27339">
        <ele>1012.120972</ele>
        <time>2021-02-03T15:14:00Z</time>
      </trkpt>
      <trkpt lat="43.97025" lon="7.27322">
        <ele>1009.101074</ele>
        <time>2021-02-03T15:14:17Z</time>
      </trkpt>
      <trkpt lat="43.97013" lon="7.2731">
        <ele>1008.533142</ele>
        <time>2021-02-03T15:14:32Z</time>
      </trkpt>
      <trkpt lat="43.97011" lon="7.2729">
        <ele>1003.734436</ele>
        <time>2021-02-03T15:14:49Z</time>
      </trkpt>
      <trkpt lat="43.9701" lon="7.27269">
        <ele>998.620911</ele>
        <time>2021-02-03T15:15:04Z</time>
      </trkpt>
      <trkpt lat="43.97013" lon="7.27248">
        <ele>991.950195</ele>
        <time>2021-02-03T15:15:19Z</time>
      </trkpt>
      <trkpt lat="43.97011" lon="7.27225">
        <ele>984.385193</ele>
        <time>2021-02-03T15:15:35Z</time>
      </trkpt>
      <trkpt lat="43.96997" lon="7.27211">
        <ele>982.622437</ele>
        <time>2021-02-03T15:15:51Z</time>
      </trkpt>
      <trkpt lat="43.96984" lon="7.27201">
        <ele>977.692444</ele>
        <time>2021-02-03T15:16:28Z</time>
      </trkpt>
      <trkpt lat="43.96969" lon="7.27193">
        <ele>973.527588</ele>
        <time>2021-02-03T15:16:44Z</time>
      </trkpt>
      <trkpt lat="43.96956" lon="7.27175">
        <ele>966.795288</ele>
        <time>2021-02-03T15:16:59Z</time>
      </trkpt>
      <trkpt lat="43.96945" lon="7.27163">
        <ele>961.690308</ele>
        <time>2021-02-03T15:17:34Z</time>
      </trkpt>
      <trkpt lat="43.96932" lon="7.27157">
        <ele>958.274536</ele>
        <time>2021-02-03T15:17:58Z</time>
      </trkpt>
      <trkpt lat="43.96918" lon="7.27159">
        <ele>958.326843</ele>
        <time>2021-02-03T15:18:19Z</time>
      </trkpt>
      <trkpt lat="43.9691" lon="7.27144">
        <ele>950.023254</ele>
        <time>2021-02-03T15:18:37Z</time>
      </trkpt>
      <trkpt lat="43.96896" lon="7.27139">
        <ele>946.152405</ele>
        <time>2021-02-03T15:18:59Z</time>
      </trkpt>
      <trkpt lat="43.96882" lon="7.27138">
        <ele>944.431519</ele>
        <time>2021-02-03T15:19:21Z</time>
      </trkpt>
      <trkpt lat="43.96872" lon="7.27124">
        <ele>939.232727</ele>
        <time>2021-02-03T15:19:40Z</time>
      </trkpt>
      <trkpt lat="43.96862" lon="7.27111">
        <ele>935.425049</ele>
        <time>2021-02-03T15:19:58Z</time>
      </trkpt>
      <trkpt lat="43.96844" lon="7.27104">
        <ele>934.385864</ele>
        <time>2021-02-03T15:20:14Z</time>
      </trkpt>
      <trkpt lat="43.96834" lon="7.27116">
        <ele>936.636047</ele>
        <time>2021-02-03T15:20:39Z</time>
      </trkpt>
      <trkpt lat="43.96822" lon="7.27125">
        <ele>937.572144</ele>
        <time>2021-02-03T15:20:55Z</time>
      </trkpt>
      <trkpt lat="43.96823" lon="7.27149">
        <ele>940.251465</ele>
        <time>2021-02-03T15:21:10Z</time>
      </trkpt>
      <trkpt lat="43.96809" lon="7.27144">
        <ele>938.464844</ele>
        <time>2021-02-03T15:21:50Z</time>
      </trkpt>
      <trkpt lat="43.96797" lon="7.27151">
        <ele>937.623779</ele>
        <time>2021-02-03T15:22:12Z</time>
      </trkpt>
      <trkpt lat="43.96783" lon="7.27154">
        <ele>936.055969</ele>
        <time>2021-02-03T15:22:28Z</time>
      </trkpt>
      <trkpt lat="43.96765" lon="7.27161">
        <ele>933.577759</ele>
        <time>2021-02-03T15:22:43Z</time>
      </trkpt>
      <trkpt lat="43.96742" lon="7.27162">
        <ele>930.100342</ele>
        <time>2021-02-03T15:22:59Z</time>
      </trkpt>
      <trkpt lat="43.96727" lon="7.27171">
        <ele>927.192383</ele>
        <time>2021-02-03T15:23:14Z</time>
      </trkpt>
      <trkpt lat="43.96715" lon="7.27178">
        <ele>924.697266</ele>
        <time>2021-02-03T15:23:36Z</time>
      </trkpt>
      <trkpt lat="43.96701" lon="7.27179">
        <ele>922.385132</ele>
        <time>2021-02-03T15:24:05Z</time>
      </trkpt>
      <trkpt lat="43.96679" lon="7.27175">
        <ele>919.192627</ele>
        <time>2021-02-03T15:24:21Z</time>
      </trkpt>
      <trkpt lat="43.9666" lon="7.27177">
        <ele>915.026306</ele>
        <time>2021-02-03T15:24:37Z</time>
      </trkpt>
      <trkpt lat="43.96638" lon="7.27183">
        <ele>909.060547</ele>
        <time>2021-02-03T15:24:53Z</time>
      </trkpt>
      <trkpt lat="43.9662" lon="7.272">
        <ele>903.931213</ele>
        <time>2021-02-03T15:25:08Z</time>
      </trkpt>
      <trkpt lat="43.96597" lon="7.27205">
        <ele>898.84845</ele>
        <time>2021-02-03T15:25:24Z</time>
      </trkpt>
      <trkpt lat="43.96581" lon="7.27216">
        <ele>895.49939</ele>
        <time>2021-02-03T15:25:40Z</time>
      </trkpt>
      <trkpt lat="43.96567" lon="7.27217">
        <ele>891.376099</ele>
        <time>2021-02-03T15:25:56Z</time>
      </trkpt>
      <trkpt lat="43.96551" lon="7.27233">
        <ele>886.956543</ele>
        <time>2021-02-03T15:26:11Z</time>
      </trkpt>
      <trkpt lat="43.96539" lon="7.2725">
        <ele>882.943359</ele>
        <time>2021-02-03T15:26:26Z</time>
      </trkpt>
      <trkpt lat="43.96525" lon="7.27248">
        <ele>878.387146</ele>
        <time>2021-02-03T15:26:41Z</time>
      </trkpt>
      <trkpt lat="43.96511" lon="7.27249">
        <ele>873.74707</ele>
        <time>2021-02-03T15:27:23Z</time>
      </trkpt>
      <trkpt lat="43.965" lon="7.27239">
        <ele>870.265747</ele>
        <time>2021-02-03T15:27:39Z</time>
      </trkpt>
      <trkpt lat="43.96495" lon="7.27259">
        <ele>867.497803</ele>
        <time>2021-02-03T15:27:54Z</time>
      </trkpt>
      <trkpt lat="43.96484" lon="7.27272">
        <ele>862.366577</ele>
        <time>2021-02-03T15:28:10Z</time>
      </trkpt>
      <trkpt lat="43.96479" lon="7.27254">
        <ele>861.35376</ele>
        <time>2021-02-03T15:28:42Z</time>
      </trkpt>
      <trkpt lat="43.96469" lon="7.27235">
        <ele>857.904297</ele>
        <time>2021-02-03T15:28:57Z</time>
      </trkpt>
      <trkpt lat="43.9646" lon="7.27215">
        <ele>854.991333</ele>
        <time>2021-02-03T15:29:13Z</time>
      </trkpt>
      <trkpt lat="43.96446" lon="7.27195">
        <ele>850.346436</ele>
        <time>2021-02-03T15:29:28Z</time>
      </trkpt>
      <trkpt lat="43.96434" lon="7.27177">
        <ele>846.447449</ele>
        <time>2021-02-03T15:29:44Z</time>
      </trkpt>
      <trkpt lat="43.9642" lon="7.27158">
        <ele>840.429565</ele>
        <time>2021-02-03T15:30:00Z</time>
      </trkpt>
      <trkpt lat="43.96416" lon="7.27176">
        <ele>839.278076</ele>
        <time>2021-02-03T15:30:29Z</time>
      </trkpt>
      <trkpt lat="43.9642" lon="7.27202">
        <ele>839.451538</ele>
        <time>2021-02-03T15:30:44Z</time>
      </trkpt>
      <trkpt lat="43.96421" lon="7.27228">
        <ele>838.625122</ele>
        <time>2021-02-03T15:31:00Z</time>
      </trkpt>
      <trkpt lat="43.96411" lon="7.27254">
        <ele>834.404907</ele>
        <time>2021-02-03T15:31:16Z</time>
      </trkpt>
      <trkpt lat="43.96395" lon="7.27251">
        <ele>828.951904</ele>
        <time>2021-02-03T15:31:32Z</time>
      </trkpt>
      <trkpt lat="43.96384" lon="7.27239">
        <ele>825.363464</ele>
        <time>2021-02-03T15:32:31Z</time>
      </trkpt>
      <trkpt lat="43.9637" lon="7.2724">
        <ele>820.653503</ele>
        <time>2021-02-03T15:32:51Z</time>
      </trkpt>
      <trkpt lat="43.96355" lon="7.27248">
        <ele>815.848145</ele>
        <time>2021-02-03T15:33:07Z</time>
      </trkpt>
      <trkpt lat="43.96347" lon="7.27231">
        <ele>812.94043</ele>
        <time>2021-02-03T15:33:25Z</time>
      </trkpt>
      <trkpt lat="43.96334" lon="7.27233">
        <ele>808.367432</ele>
        <time>2021-02-03T15:33:41Z</time>
      </trkpt>
      <trkpt lat="43.96319" lon="7.27234">
        <ele>804.998535</ele>
        <time>2021-02-03T15:34:02Z</time>
      </trkpt>
      <trkpt lat="43.96307" lon="7.27242">
        <ele>802.470886</ele>
        <time>2021-02-03T15:34:25Z</time>
      </trkpt>
      <trkpt lat="43.9629" lon="7.2725">
        <ele>799.19873</ele>
        <time>2021-02-03T15:34:40Z</time>
      </trkpt>
      <trkpt lat="43.96276" lon="7.27257">
        <ele>795.875488</ele>
        <time>2021-02-03T15:34:56Z</time>
      </trkpt>
      <trkpt lat="43.96261" lon="7.27263">
        <ele>792.301453</ele>
        <time>2021-02-03T15:35:11Z</time>
      </trkpt>
      <trkpt lat="43.96247" lon="7.2727">
        <ele>788.783386</ele>
        <time>2021-02-03T15:35:26Z</time>
      </trkpt>
      <trkpt lat="43.96234" lon="7.27261">
        <ele>785.854858</ele>
        <time>2021-02-03T15:35:47Z</time>
      </trkpt>
      <trkpt lat="43.96221" lon="7.27244">
        <ele>782.528381</ele>
        <time>2021-02-03T15:36:03Z</time>
      </trkpt>
      <trkpt lat="43.96205" lon="7.27227">
        <ele>776.487183</ele>
        <time>2021-02-03T15:36:18Z</time>
      </trkpt>
      <trkpt lat="43.96192" lon="7.27204">
        <ele>770.384888</ele>
        <time>2021-02-03T15:36:34Z</time>
      </trkpt>
      <trkpt lat="43.96172" lon="7.27206">
        <ele>765.169556</ele>
        <time>2021-02-03T15:36:50Z</time>
      </trkpt>
      <trkpt lat="43.96167" lon="7.27227">
        <ele>766.724182</ele>
        <time>2021-02-03T15:37:06Z</time>
      </trkpt>
      <trkpt lat="43.9616" lon="7.2721">
        <ele>762.431763</ele>
        <time>2021-02-03T15:37:48Z</time>
      </trkpt>
      <trkpt lat="43.96149" lon="7.27198">
        <ele>757.936523</ele>
        <time>2021-02-03T15:38:03Z</time>
      </trkpt>
      <trkpt lat="43.96136" lon="7.27191">
        <ele>753.419312</ele>
        <time>2021-02-03T15:38:40Z</time>
      </trkpt>
      <trkpt lat="43.96122" lon="7.27193">
        <ele>750.042847</ele>
        <time>2021-02-03T15:39:11Z</time>
      </trkpt>
      <trkpt lat="43.96107" lon="7.27186">
        <ele>745.093018</ele>
        <time>2021-02-03T15:39:26Z</time>
      </trkpt>
      <trkpt lat="43.96094" lon="7.2718">
        <ele>740.833618</ele>
        <time>2021-02-03T15:39:43Z</time>
      </trkpt>
      <trkpt lat="43.96075" lon="7.27189">
        <ele>737.455383</ele>
        <time>2021-02-03T15:39:59Z</time>
      </trkpt>
      <trkpt lat="43.96057" lon="7.27201">
        <ele>735.569397</ele>
        <time>2021-02-03T15:40:15Z</time>
      </trkpt>
      <trkpt lat="43.96041" lon="7.272">
        <ele>732.306091</ele>
        <time>2021-02-03T15:40:30Z</time>
      </trkpt>
      <trkpt lat="43.96037" lon="7.27182">
        <ele>728.410645</ele>
        <time>2021-02-03T15:40:47Z</time>
      </trkpt>
      <trkpt lat="43.96037" lon="7.2716">
        <ele>724.403076</ele>
        <time>2021-02-03T15:41:02Z</time>
      </trkpt>
      <trkpt lat="43.96028" lon="7.27139">
        <ele>717.606567</ele>
        <time>2021-02-03T15:41:18Z</time>
      </trkpt>
      <trkpt lat="43.96019" lon="7.27125">
        <ele>712.487793</ele>
        <time>2021-02-03T15:41:40Z</time>
      </trkpt>
      <trkpt lat="43.96005" lon="7.27119">
        <ele>708.709229</ele>
        <time>2021-02-03T15:42:00Z</time>
      </trkpt>
      <trkpt lat="43.9601" lon="7.27101">
        <ele>705.479126</ele>
        <time>2021-02-03T15:42:15Z</time>
      </trkpt>
      <trkpt lat="43.96014" lon="7.27076">
        <ele>700.025879</ele>
        <time>2021-02-03T15:42:30Z</time>
      </trkpt>
      <trkpt lat="43.96002" lon="7.27084">
        <ele>700.437805</ele>
        <time>2021-02-03T15:43:05Z</time>
      </trkpt>
      <trkpt lat="43.95991" lon="7.27108">
        <ele>701.867065</ele>
        <time>2021-02-03T15:43:21Z</time>
      </trkpt>
      <trkpt lat="43.96" lon="7.27092">
        <ele>701.799561</ele>
        <time>2021-02-03T15:44:05Z</time>
      </trkpt>
      <trkpt lat="43.9601" lon="7.27066">
        <ele>696.378296</ele>
        <time>2021-02-03T15:44:20Z</time>
      </trkpt>
      <trkpt lat="43.9602" lon="7.2705">
        <ele>691.966003</ele>
        <time>2021-02-03T15:44:36Z</time>
      </trkpt>
      <trkpt lat="43.9604" lon="7.27039">
        <ele>688.581055</ele>
        <time>2021-02-03T15:44:52Z</time>
      </trkpt>
      <trkpt lat="43.96052" lon="7.27031">
        <ele>685.080017</ele>
        <time>2021-02-03T15:45:07Z</time>
      </trkpt>
      <trkpt lat="43.96043" lon="7.27016">
        <ele>679.077637</ele>
        <time>2021-02-03T15:45:50Z</time>
      </trkpt>
      <trkpt lat="43.9603" lon="7.27009">
        <ele>677.02948</ele>
        <time>2021-02-03T15:46:14Z</time>
      </trkpt>
      <trkpt lat="43.96018" lon="7.26999">
        <ele>674.705322</ele>
        <time>2021-02-03T15:46:30Z</time>
      </trkpt>
      <trkpt lat="43.96006" lon="7.26983">
        <ele>669.082336</ele>
        <time>2021-02-03T15:46:46Z</time>
      </trkpt>
      <trkpt lat="43.95989" lon="7.26974">
        <ele>662.840515</ele>
        <time>2021-02-03T15:47:02Z</time>
      </trkpt>
      <trkpt lat="43.95976" lon="7.26992">
        <ele>666.753662</ele>
        <time>2021-02-03T15:47:18Z</time>
      </trkpt>
      <trkpt lat="43.95965" lon="7.27018">
        <ele>671.112183</ele>
        <time>2021-02-03T15:47:34Z</time>
      </trkpt>
      <trkpt lat="43.9595" lon="7.27039">
        <ele>671.516785</ele>
        <time>2021-02-03T15:47:49Z</time>
      </trkpt>
      <trkpt lat="43.95932" lon="7.27055">
        <ele>669.267273</ele>
        <time>2021-02-03T15:48:04Z</time>
      </trkpt>
      <trkpt lat="43.95917" lon="7.27076">
        <ele>668.555603</ele>
        <time>2021-02-03T15:48:20Z</time>
      </trkpt>
      <trkpt lat="43.95908" lon="7.27092">
        <ele>669.144409</ele>
        <time>2021-02-03T15:48:35Z</time>
      </trkpt>
    </trkseg>
  </trk>
</gpx>